<?xml version="1.0" encoding="UTF-8" standalone="no" ?>
<gpx xmlns="http://www.topografix.com/GPX/1/1" creator="https://MapMagic.app" xmlns:xsi="http://www.w3.org/2001/XMLSchema-instance" xsi:schemaLocation="http://www.topografix.com/GPX/1/1 http://www.topografix.com/GPX/1/1/gpx.xsd" version="1.1">
	<wpt lat="54.936074" lon="20.511499">
		<name>КП 1</name>
		<desc>КП 1</desc>
		<type>Generic</type>
	</wpt>
	<trk>
		<name>200_Воктобрр_2026</name>
		<desc>200_Воктобрр_2026</desc>
		<trkseg>
			<trkpt lat="54.694750" lon="20.524810"><ele>0.8</ele><time>2020-10-01T00:06:13Z</time></trkpt>
			<trkpt lat="54.694750" lon="20.524810"><ele>0.8</ele><time>2020-10-01T00:06:13Z</time></trkpt>
			<trkpt lat="54.694750" lon="20.524810"><ele>0.8</ele><time>2020-10-01T00:06:15Z</time></trkpt>
			<trkpt lat="54.694360" lon="20.525460"><ele>-0.2</ele><time>2020-10-01T00:06:17Z</time></trkpt>
			<trkpt lat="54.694250" lon="20.525630"><ele>-0.5</ele><time>2020-10-01T00:06:19Z</time></trkpt>
			<trkpt lat="54.694200" lon="20.525580"><ele>-0.6</ele><time>2020-10-01T00:06:21Z</time></trkpt>
			<trkpt lat="54.694110" lon="20.525550"><ele>-0.5</ele><time>2020-10-01T00:06:23Z</time></trkpt>
			<trkpt lat="54.694060" lon="20.525570"><ele>-0.5</ele><time>2020-10-01T00:06:25Z</time></trkpt>
			<trkpt lat="54.694020" lon="20.525610"><ele>-0.4</ele><time>2020-10-01T00:06:27Z</time></trkpt>
			<trkpt lat="54.694020" lon="20.525610"><ele>-0.4</ele><time>2020-10-01T00:06:27Z</time></trkpt>
			<trkpt lat="54.693920" lon="20.525720"><ele>-0.3</ele><time>2020-10-01T00:06:27Z</time></trkpt>
			<trkpt lat="54.693870" lon="20.525720"><ele>-0.2</ele><time>2020-10-01T00:06:28Z</time></trkpt>
			<trkpt lat="54.693750" lon="20.525580"><ele>0.2</ele><time>2020-10-01T00:06:29Z</time></trkpt>
			<trkpt lat="54.693690" lon="20.525490"><ele>0.3</ele><time>2020-10-01T00:06:30Z</time></trkpt>
			<trkpt lat="54.693630" lon="20.525590"><ele>0.4</ele><time>2020-10-01T00:06:31Z</time></trkpt>
			<trkpt lat="54.693120" lon="20.526450"><ele>1.2</ele><time>2020-10-01T00:06:32Z</time></trkpt>
			<trkpt lat="54.693070" lon="20.526540"><ele>1.3</ele><time>2020-10-01T00:06:33Z</time></trkpt>
			<trkpt lat="54.693010" lon="20.526630"><ele>1.3</ele><time>2020-10-01T00:06:34Z</time></trkpt>
			<trkpt lat="54.692730" lon="20.527150"><ele>1.1</ele><time>2020-10-01T00:06:35Z</time></trkpt>
			<trkpt lat="54.692660" lon="20.527260"><ele>1.1</ele><time>2020-10-01T00:06:36Z</time></trkpt>
			<trkpt lat="54.692430" lon="20.527640"><ele>1.3</ele><time>2020-10-01T00:06:37Z</time></trkpt>
			<trkpt lat="54.692300" lon="20.527840"><ele>1.7</ele><time>2020-10-01T00:06:38Z</time></trkpt>
			<trkpt lat="54.691860" lon="20.528580"><ele>2.1</ele><time>2020-10-01T00:06:39Z</time></trkpt>
			<trkpt lat="54.691820" lon="20.528650"><ele>2.1</ele><time>2020-10-01T00:06:40Z</time></trkpt>
			<trkpt lat="54.691280" lon="20.529550"><ele>2.5</ele><time>2020-10-01T00:06:41Z</time></trkpt>
			<trkpt lat="54.690515" lon="20.530609"><ele>1.6</ele><time>2020-10-01T00:07:00Z</time></trkpt>
			<trkpt lat="54.689937" lon="20.531254"><ele>1.5</ele><time>2020-10-01T00:07:14Z</time></trkpt>
			<trkpt lat="54.689248" lon="20.531859"><ele>1.0</ele><time>2020-10-01T00:07:29Z</time></trkpt>
			<trkpt lat="54.688452" lon="20.532358"><ele>2.0</ele><time>2020-10-01T00:07:46Z</time></trkpt>
			<trkpt lat="54.688143" lon="20.532496"><ele>2.5</ele><time>2020-10-01T00:07:53Z</time></trkpt>
			<trkpt lat="54.683252" lon="20.534104"><ele>7.0</ele><time>2020-10-01T00:09:33Z</time></trkpt>
			<trkpt lat="54.683176" lon="20.535581"><ele>5.2</ele><time>2020-10-01T00:09:50Z</time></trkpt>
			<trkpt lat="54.681820" lon="20.573288"><ele>10.0</ele><time>2020-10-01T00:17:07Z</time></trkpt>
			<trkpt lat="54.682168" lon="20.586959"><ele>6.6</ele><time>2020-10-01T00:19:46Z</time></trkpt>
			<trkpt lat="54.682189" lon="20.588872"><ele>7.2</ele><time>2020-10-01T00:20:08Z</time></trkpt>
			<trkpt lat="54.682312" lon="20.591717"><ele>6.3</ele><time>2020-10-01T00:20:41Z</time></trkpt>
			<trkpt lat="54.682435" lon="20.596777"><ele>4.8</ele><time>2020-10-01T00:21:40Z</time></trkpt>
			<trkpt lat="54.682537" lon="20.598028"><ele>4.9</ele><time>2020-10-01T00:21:54Z</time></trkpt>
			<trkpt lat="54.683112" lon="20.602132"><ele>-1.5</ele><time>2020-10-01T00:22:43Z</time></trkpt>
			<trkpt lat="54.683142" lon="20.602684"><ele>-1.8</ele><time>2020-10-01T00:22:50Z</time></trkpt>
			<trkpt lat="54.683098" lon="20.603575"><ele>-1.9</ele><time>2020-10-01T00:23:00Z</time></trkpt>
			<trkpt lat="54.682991" lon="20.604587"><ele>-1.4</ele><time>2020-10-01T00:23:12Z</time></trkpt>
			<trkpt lat="54.682855" lon="20.605242"><ele>-0.4</ele><time>2020-10-01T00:23:20Z</time></trkpt>
			<trkpt lat="54.682336" lon="20.606716"><ele>3.0</ele><time>2020-10-01T00:23:40Z</time></trkpt>
			<trkpt lat="54.680818" lon="20.610454"><ele>7.4</ele><time>2020-10-01T00:24:33Z</time></trkpt>
			<trkpt lat="54.673435" lon="20.626606"><ele>7.9</ele><time>2020-10-01T00:28:32Z</time></trkpt>
			<trkpt lat="54.670872" lon="20.631507"><ele>8.8</ele><time>2020-10-01T00:29:48Z</time></trkpt>
			<trkpt lat="54.670374" lon="20.632529"><ele>8.9</ele><time>2020-10-01T00:30:04Z</time></trkpt>
			<trkpt lat="54.669535" lon="20.633663"><ele>8.2</ele><time>2020-10-01T00:30:25Z</time></trkpt>
			<trkpt lat="54.669506" lon="20.633774"><ele>8.3</ele><time>2020-10-01T00:30:26Z</time></trkpt>
			<trkpt lat="54.669510" lon="20.633982"><ele>8.4</ele><time>2020-10-01T00:30:29Z</time></trkpt>
			<trkpt lat="54.669600" lon="20.634179"><ele>8.5</ele><time>2020-10-01T00:30:32Z</time></trkpt>
			<trkpt lat="54.669651" lon="20.634394"><ele>8.5</ele><time>2020-10-01T00:30:35Z</time></trkpt>
			<trkpt lat="54.669684" lon="20.634637"><ele>8.6</ele><time>2020-10-01T00:30:37Z</time></trkpt>
			<trkpt lat="54.669671" lon="20.634854"><ele>8.8</ele><time>2020-10-01T00:30:40Z</time></trkpt>
			<trkpt lat="54.667928" lon="20.640357"><ele>14.3</ele><time>2020-10-01T00:31:53Z</time></trkpt>
			<trkpt lat="54.666523" lon="20.648708"><ele>9.3</ele><time>2020-10-01T00:33:33Z</time></trkpt>
			<trkpt lat="54.666133" lon="20.649561"><ele>8.8</ele><time>2020-10-01T00:33:46Z</time></trkpt>
			<trkpt lat="54.663163" lon="20.654116"><ele>9.0</ele><time>2020-10-01T00:35:06Z</time></trkpt>
			<trkpt lat="54.663012" lon="20.654395"><ele>10.1</ele><time>2020-10-01T00:35:10Z</time></trkpt>
			<trkpt lat="54.662837" lon="20.655043"><ele>11.7</ele><time>2020-10-01T00:35:18Z</time></trkpt>
			<trkpt lat="54.662604" lon="20.657233"><ele>12.2</ele><time>2020-10-01T00:35:44Z</time></trkpt>
			<trkpt lat="54.661709" lon="20.668221"><ele>15.0</ele><time>2020-10-01T00:37:53Z</time></trkpt>
			<trkpt lat="54.661339" lon="20.670640"><ele>15.5</ele><time>2020-10-01T00:38:22Z</time></trkpt>
			<trkpt lat="54.660695" lon="20.674369"><ele>14.4</ele><time>2020-10-01T00:39:07Z</time></trkpt>
			<trkpt lat="54.660547" lon="20.674912"><ele>13.4</ele><time>2020-10-01T00:39:14Z</time></trkpt>
			<trkpt lat="54.660487" lon="20.675019"><ele>13.2</ele><time>2020-10-01T00:39:16Z</time></trkpt>
			<trkpt lat="54.660317" lon="20.675146"><ele>12.7</ele><time>2020-10-01T00:39:19Z</time></trkpt>
			<trkpt lat="54.660115" lon="20.675216"><ele>12.1</ele><time>2020-10-01T00:39:23Z</time></trkpt>
			<trkpt lat="54.659229" lon="20.675280"><ele>14.3</ele><time>2020-10-01T00:39:41Z</time></trkpt>
			<trkpt lat="54.658838" lon="20.675591"><ele>16.2</ele><time>2020-10-01T00:39:50Z</time></trkpt>
			<trkpt lat="54.658330" lon="20.676090"><ele>16.6</ele><time>2020-10-01T00:40:02Z</time></trkpt>
			<trkpt lat="54.657843" lon="20.676019"><ele>15.1</ele><time>2020-10-01T00:40:11Z</time></trkpt>
			<trkpt lat="54.656675" lon="20.676226"><ele>15.0</ele><time>2020-10-01T00:40:35Z</time></trkpt>
			<trkpt lat="54.655874" lon="20.676329"><ele>16.5</ele><time>2020-10-01T00:40:51Z</time></trkpt>
			<trkpt lat="54.652809" lon="20.676958"><ele>17.5</ele><time>2020-10-01T00:41:53Z</time></trkpt>
			<trkpt lat="54.652201" lon="20.677027"><ele>17.7</ele><time>2020-10-01T00:42:05Z</time></trkpt>
			<trkpt lat="54.651793" lon="20.676972"><ele>17.9</ele><time>2020-10-01T00:42:13Z</time></trkpt>
			<trkpt lat="54.651232" lon="20.677085"><ele>17.2</ele><time>2020-10-01T00:42:25Z</time></trkpt>
			<trkpt lat="54.650806" lon="20.677432"><ele>17.0</ele><time>2020-10-01T00:42:34Z</time></trkpt>
			<trkpt lat="54.650397" lon="20.677913"><ele>17.0</ele><time>2020-10-01T00:42:44Z</time></trkpt>
			<trkpt lat="54.650057" lon="20.678685"><ele>17.8</ele><time>2020-10-01T00:42:55Z</time></trkpt>
			<trkpt lat="54.649930" lon="20.679130"><ele>18.8</ele><time>2020-10-01T00:43:01Z</time></trkpt>
			<trkpt lat="54.649697" lon="20.680880"><ele>17.5</ele><time>2020-10-01T00:43:22Z</time></trkpt>
			<trkpt lat="54.648891" lon="20.690506"><ele>18.5</ele><time>2020-10-01T00:45:14Z</time></trkpt>
			<trkpt lat="54.648713" lon="20.692167"><ele>17.8</ele><time>2020-10-01T00:45:34Z</time></trkpt>
			<trkpt lat="54.648580" lon="20.692920"><ele>18.3</ele><time>2020-10-01T00:45:43Z</time></trkpt>
			<trkpt lat="54.648340" lon="20.694012"><ele>21.2</ele><time>2020-10-01T00:45:57Z</time></trkpt>
			<trkpt lat="54.646334" lon="20.701644"><ele>18.8</ele><time>2020-10-01T00:47:34Z</time></trkpt>
			<trkpt lat="54.642663" lon="20.714665"><ele>22.5</ele><time>2020-10-01T00:50:22Z</time></trkpt>
			<trkpt lat="54.642342" lon="20.715450"><ele>25.9</ele><time>2020-10-01T00:50:33Z</time></trkpt>
			<trkpt lat="54.642039" lon="20.716033"><ele>27.0</ele><time>2020-10-01T00:50:42Z</time></trkpt>
			<trkpt lat="54.641621" lon="20.716633"><ele>26.6</ele><time>2020-10-01T00:50:53Z</time></trkpt>
			<trkpt lat="54.636451" lon="20.721908"><ele>23.4</ele><time>2020-10-01T00:52:53Z</time></trkpt>
			<trkpt lat="54.636014" lon="20.722400"><ele>22.9</ele><time>2020-10-01T00:53:04Z</time></trkpt>
			<trkpt lat="54.635658" lon="20.723062"><ele>22.8</ele><time>2020-10-01T00:53:14Z</time></trkpt>
			<trkpt lat="54.635454" lon="20.723646"><ele>22.4</ele><time>2020-10-01T00:53:22Z</time></trkpt>
			<trkpt lat="54.634840" lon="20.725692"><ele>22.0</ele><time>2020-10-01T00:53:49Z</time></trkpt>
			<trkpt lat="54.634279" lon="20.727761"><ele>23.4</ele><time>2020-10-01T00:54:15Z</time></trkpt>
			<trkpt lat="54.634136" lon="20.728429"><ele>23.8</ele><time>2020-10-01T00:54:24Z</time></trkpt>
			<trkpt lat="54.634084" lon="20.728843"><ele>23.2</ele><time>2020-10-01T00:54:29Z</time></trkpt>
			<trkpt lat="54.634055" lon="20.729749"><ele>22.7</ele><time>2020-10-01T00:54:39Z</time></trkpt>
			<trkpt lat="54.634028" lon="20.734633"><ele>21.5</ele><time>2020-10-01T00:55:36Z</time></trkpt>
			<trkpt lat="54.633995" lon="20.734989"><ele>21.8</ele><time>2020-10-01T00:55:40Z</time></trkpt>
			<trkpt lat="54.633930" lon="20.735402"><ele>22.3</ele><time>2020-10-01T00:55:45Z</time></trkpt>
			<trkpt lat="54.633846" lon="20.735675"><ele>22.7</ele><time>2020-10-01T00:55:48Z</time></trkpt>
			<trkpt lat="54.633114" lon="20.737548"><ele>21.4</ele><time>2020-10-01T00:56:15Z</time></trkpt>
			<trkpt lat="54.633029" lon="20.738113"><ele>19.0</ele><time>2020-10-01T00:56:21Z</time></trkpt>
			<trkpt lat="54.633068" lon="20.738677"><ele>17.0</ele><time>2020-10-01T00:56:28Z</time></trkpt>
			<trkpt lat="54.633133" lon="20.739101"><ele>16.1</ele><time>2020-10-01T00:56:33Z</time></trkpt>
			<trkpt lat="54.633467" lon="20.740531"><ele>17.0</ele><time>2020-10-01T00:56:51Z</time></trkpt>
			<trkpt lat="54.633484" lon="20.740986"><ele>18.0</ele><time>2020-10-01T00:56:56Z</time></trkpt>
			<trkpt lat="54.632481" lon="20.742223"><ele>20.3</ele><time>2020-10-01T00:57:21Z</time></trkpt>
			<trkpt lat="54.631368" lon="20.743207"><ele>24.0</ele><time>2020-10-01T00:57:46Z</time></trkpt>
			<trkpt lat="54.630161" lon="20.744159"><ele>23.6</ele><time>2020-10-01T00:58:13Z</time></trkpt>
			<trkpt lat="54.629963" lon="20.744527"><ele>22.9</ele><time>2020-10-01T00:58:19Z</time></trkpt>
			<trkpt lat="54.629411" lon="20.746470"><ele>21.2</ele><time>2020-10-01T00:58:44Z</time></trkpt>
			<trkpt lat="54.629071" lon="20.747852"><ele>23.5</ele><time>2020-10-01T00:59:01Z</time></trkpt>
			<trkpt lat="54.626957" lon="20.753108"><ele>24.5</ele><time>2020-10-01T01:00:15Z</time></trkpt>
			<trkpt lat="54.625065" lon="20.757562"><ele>25.1</ele><time>2020-10-01T01:01:19Z</time></trkpt>
			<trkpt lat="54.624887" lon="20.758046"><ele>25.6</ele><time>2020-10-01T01:01:26Z</time></trkpt>
			<trkpt lat="54.624809" lon="20.758368"><ele>26.4</ele><time>2020-10-01T01:01:30Z</time></trkpt>
			<trkpt lat="54.624201" lon="20.762547"><ele>31.0</ele><time>2020-10-01T01:02:20Z</time></trkpt>
			<trkpt lat="54.621753" lon="20.779931"><ele>25.7</ele><time>2020-10-01T01:05:48Z</time></trkpt>
			<trkpt lat="54.621629" lon="20.780638"><ele>25.3</ele><time>2020-10-01T01:05:56Z</time></trkpt>
			<trkpt lat="54.621616" lon="20.781124"><ele>25.4</ele><time>2020-10-01T01:06:02Z</time></trkpt>
			<trkpt lat="54.621650" lon="20.781295"><ele>25.6</ele><time>2020-10-01T01:06:04Z</time></trkpt>
			<trkpt lat="54.621782" lon="20.781479"><ele>25.8</ele><time>2020-10-01T01:06:07Z</time></trkpt>
			<trkpt lat="54.624868" lon="20.784108"><ele>25.2</ele><time>2020-10-01T01:07:16Z</time></trkpt>
			<trkpt lat="54.625394" lon="20.784778"><ele>24.4</ele><time>2020-10-01T01:07:29Z</time></trkpt>
			<trkpt lat="54.625830" lon="20.785168"><ele>24.0</ele><time>2020-10-01T01:07:39Z</time></trkpt>
			<trkpt lat="54.626200" lon="20.785419"><ele>22.9</ele><time>2020-10-01T01:07:47Z</time></trkpt>
			<trkpt lat="54.626977" lon="20.785747"><ele>16.1</ele><time>2020-10-01T01:08:03Z</time></trkpt>
			<trkpt lat="54.627081" lon="20.785823"><ele>14.3</ele><time>2020-10-01T01:08:05Z</time></trkpt>
			<trkpt lat="54.627222" lon="20.786067"><ele>12.1</ele><time>2020-10-01T01:08:09Z</time></trkpt>
			<trkpt lat="54.627269" lon="20.786304"><ele>11.5</ele><time>2020-10-01T01:08:12Z</time></trkpt>
			<trkpt lat="54.627277" lon="20.786788"><ele>11.7</ele><time>2020-10-01T01:08:18Z</time></trkpt>
			<trkpt lat="54.627264" lon="20.794110"><ele>13.8</ele><time>2020-10-01T01:09:43Z</time></trkpt>
			<trkpt lat="54.627424" lon="20.798235"><ele>12.0</ele><time>2020-10-01T01:10:31Z</time></trkpt>
			<trkpt lat="54.628073" lon="20.805826"><ele>8.3</ele><time>2020-10-01T01:12:00Z</time></trkpt>
			<trkpt lat="54.628173" lon="20.806674"><ele>7.6</ele><time>2020-10-01T01:12:10Z</time></trkpt>
			<trkpt lat="54.628825" lon="20.810222"><ele>4.5</ele><time>2020-10-01T01:12:53Z</time></trkpt>
			<trkpt lat="54.629084" lon="20.811797"><ele>5.4</ele><time>2020-10-01T01:13:12Z</time></trkpt>
			<trkpt lat="54.629217" lon="20.812915"><ele>7.9</ele><time>2020-10-01T01:13:25Z</time></trkpt>
			<trkpt lat="54.629291" lon="20.813762"><ele>8.4</ele><time>2020-10-01T01:13:35Z</time></trkpt>
			<trkpt lat="54.629504" lon="20.818076"><ele>3.8</ele><time>2020-10-01T01:14:25Z</time></trkpt>
			<trkpt lat="54.629593" lon="20.819392"><ele>3.5</ele><time>2020-10-01T01:14:41Z</time></trkpt>
			<trkpt lat="54.629758" lon="20.821037"><ele>9.7</ele><time>2020-10-01T01:15:00Z</time></trkpt>
			<trkpt lat="54.630085" lon="20.823003"><ele>12.3</ele><time>2020-10-01T01:15:24Z</time></trkpt>
			<trkpt lat="54.632943" lon="20.837163"><ele>8.3</ele><time>2020-10-01T01:18:18Z</time></trkpt>
			<trkpt lat="54.633201" lon="20.838986"><ele>8.9</ele><time>2020-10-01T01:18:40Z</time></trkpt>
			<trkpt lat="54.633276" lon="20.839877"><ele>9.7</ele><time>2020-10-01T01:18:50Z</time></trkpt>
			<trkpt lat="54.633305" lon="20.841319"><ele>7.4</ele><time>2020-10-01T01:19:07Z</time></trkpt>
			<trkpt lat="54.632869" lon="20.848087"><ele>6.1</ele><time>2020-10-01T01:20:26Z</time></trkpt>
			<trkpt lat="54.632863" lon="20.849032"><ele>8.1</ele><time>2020-10-01T01:20:37Z</time></trkpt>
			<trkpt lat="54.633052" lon="20.852372"><ele>10.6</ele><time>2020-10-01T01:21:16Z</time></trkpt>
			<trkpt lat="54.633096" lon="20.854411"><ele>11.5</ele><time>2020-10-01T01:21:39Z</time></trkpt>
			<trkpt lat="54.633010" lon="20.855681"><ele>14.8</ele><time>2020-10-01T01:21:54Z</time></trkpt>
			<trkpt lat="54.632820" lon="20.857103"><ele>15.9</ele><time>2020-10-01T01:22:11Z</time></trkpt>
			<trkpt lat="54.631928" lon="20.861773"><ele>20.5</ele><time>2020-10-01T01:23:08Z</time></trkpt>
			<trkpt lat="54.631664" lon="20.863551"><ele>21.9</ele><time>2020-10-01T01:23:29Z</time></trkpt>
			<trkpt lat="54.630699" lon="20.872997"><ele>18.9</ele><time>2020-10-01T01:25:21Z</time></trkpt>
			<trkpt lat="54.630551" lon="20.873763"><ele>19.3</ele><time>2020-10-01T01:25:30Z</time></trkpt>
			<trkpt lat="54.630301" lon="20.874762"><ele>20.5</ele><time>2020-10-01T01:25:43Z</time></trkpt>
			<trkpt lat="54.629234" lon="20.878318"><ele>19.1</ele><time>2020-10-01T01:26:29Z</time></trkpt>
			<trkpt lat="54.628565" lon="20.880731"><ele>21.1</ele><time>2020-10-01T01:27:00Z</time></trkpt>
			<trkpt lat="54.628521" lon="20.881186"><ele>21.2</ele><time>2020-10-01T01:27:06Z</time></trkpt>
			<trkpt lat="54.629906" lon="20.890502"><ele>22.9</ele><time>2020-10-01T01:28:57Z</time></trkpt>
			<trkpt lat="54.629966" lon="20.890815"><ele>23.0</ele><time>2020-10-01T01:29:01Z</time></trkpt>
			<trkpt lat="54.630313" lon="20.892007"><ele>21.6</ele><time>2020-10-01T01:29:16Z</time></trkpt>
			<trkpt lat="54.631410" lon="20.899598"><ele>22.0</ele><time>2020-10-01T01:30:47Z</time></trkpt>
			<trkpt lat="54.630963" lon="20.899815"><ele>22.8</ele><time>2020-10-01T01:30:57Z</time></trkpt>
			<trkpt lat="54.631301" lon="20.902018"><ele>23.1</ele><time>2020-10-01T01:31:23Z</time></trkpt>
			<trkpt lat="54.631697" lon="20.905060"><ele>20.9</ele><time>2020-10-01T01:31:59Z</time></trkpt>
			<trkpt lat="54.632835" lon="20.912559"><ele>19.6</ele><time>2020-10-01T01:33:29Z</time></trkpt>
			<trkpt lat="54.633061" lon="20.914253"><ele>20.9</ele><time>2020-10-01T01:33:49Z</time></trkpt>
			<trkpt lat="54.633216" lon="20.917343"><ele>23.2</ele><time>2020-10-01T01:34:25Z</time></trkpt>
			<trkpt lat="54.633389" lon="20.919977"><ele>25.7</ele><time>2020-10-01T01:34:56Z</time></trkpt>
			<trkpt lat="54.633359" lon="20.920800"><ele>25.0</ele><time>2020-10-01T01:35:05Z</time></trkpt>
			<trkpt lat="54.632947" lon="20.924457"><ele>23.5</ele><time>2020-10-01T01:35:49Z</time></trkpt>
			<trkpt lat="54.632806" lon="20.925867"><ele>22.7</ele><time>2020-10-01T01:36:05Z</time></trkpt>
			<trkpt lat="54.632806" lon="20.926119"><ele>22.6</ele><time>2020-10-01T01:36:08Z</time></trkpt>
			<trkpt lat="54.632920" lon="20.926559"><ele>22.5</ele><time>2020-10-01T01:36:14Z</time></trkpt>
			<trkpt lat="54.633445" lon="20.927565"><ele>22.9</ele><time>2020-10-01T01:36:30Z</time></trkpt>
			<trkpt lat="54.633601" lon="20.928004"><ele>23.1</ele><time>2020-10-01T01:36:36Z</time></trkpt>
			<trkpt lat="54.633718" lon="20.928477"><ele>23.0</ele><time>2020-10-01T01:36:41Z</time></trkpt>
			<trkpt lat="54.633970" lon="20.929838"><ele>23.0</ele><time>2020-10-01T01:36:58Z</time></trkpt>
			<trkpt lat="54.634086" lon="20.930714"><ele>23.1</ele><time>2020-10-01T01:37:08Z</time></trkpt>
			<trkpt lat="54.634117" lon="20.931255"><ele>23.0</ele><time>2020-10-01T01:37:15Z</time></trkpt>
			<trkpt lat="54.634108" lon="20.931841"><ele>23.0</ele><time>2020-10-01T01:37:22Z</time></trkpt>
			<trkpt lat="54.633832" lon="20.933970"><ele>22.8</ele><time>2020-10-01T01:37:47Z</time></trkpt>
			<trkpt lat="54.633825" lon="20.934523"><ele>22.9</ele><time>2020-10-01T01:37:53Z</time></trkpt>
			<trkpt lat="54.634037" lon="20.935136"><ele>23.2</ele><time>2020-10-01T01:38:02Z</time></trkpt>
			<trkpt lat="54.634239" lon="20.935500"><ele>23.3</ele><time>2020-10-01T01:38:07Z</time></trkpt>
			<trkpt lat="54.634653" lon="20.935739"><ele>22.2</ele><time>2020-10-01T01:38:16Z</time></trkpt>
			<trkpt lat="54.634794" lon="20.935871"><ele>21.8</ele><time>2020-10-01T01:38:19Z</time></trkpt>
			<trkpt lat="54.634910" lon="20.936082"><ele>21.6</ele><time>2020-10-01T01:38:23Z</time></trkpt>
			<trkpt lat="54.635376" lon="20.937271"><ele>20.3</ele><time>2020-10-01T01:38:39Z</time></trkpt>
			<trkpt lat="54.635836" lon="20.938326"><ele>19.1</ele><time>2020-10-01T01:38:55Z</time></trkpt>
			<trkpt lat="54.636004" lon="20.939100"><ele>18.9</ele><time>2020-10-01T01:39:04Z</time></trkpt>
			<trkpt lat="54.636216" lon="20.940471"><ele>16.2</ele><time>2020-10-01T01:39:21Z</time></trkpt>
			<trkpt lat="54.636563" lon="20.941376"><ele>13.0</ele><time>2020-10-01T01:39:33Z</time></trkpt>
			<trkpt lat="54.636663" lon="20.942016"><ele>10.4</ele><time>2020-10-01T01:39:41Z</time></trkpt>
			<trkpt lat="54.636689" lon="20.943000"><ele>6.2</ele><time>2020-10-01T01:39:53Z</time></trkpt>
			<trkpt lat="54.636580" lon="20.946227"><ele>15.7</ele><time>2020-10-01T01:40:30Z</time></trkpt>
			<trkpt lat="54.636498" lon="20.947599"><ele>17.5</ele><time>2020-10-01T01:40:46Z</time></trkpt>
			<trkpt lat="54.636077" lon="20.951680"><ele>17.0</ele><time>2020-10-01T01:41:34Z</time></trkpt>
			<trkpt lat="54.635853" lon="20.952688"><ele>17.2</ele><time>2020-10-01T01:41:47Z</time></trkpt>
			<trkpt lat="54.633479" lon="20.961832"><ele>22.5</ele><time>2020-10-01T01:43:43Z</time></trkpt>
			<trkpt lat="54.632921" lon="20.964362"><ele>19.2</ele><time>2020-10-01T01:44:14Z</time></trkpt>
			<trkpt lat="54.630852" lon="20.975465"><ele>19.0</ele><time>2020-10-01T01:46:30Z</time></trkpt>
			<trkpt lat="54.629294" lon="20.985180"><ele>18.5</ele><time>2020-10-01T01:48:27Z</time></trkpt>
			<trkpt lat="54.629201" lon="20.985538"><ele>18.1</ele><time>2020-10-01T01:48:31Z</time></trkpt>
			<trkpt lat="54.628162" lon="20.987794"><ele>17.3</ele><time>2020-10-01T01:49:05Z</time></trkpt>
			<trkpt lat="54.627897" lon="20.988287"><ele>17.9</ele><time>2020-10-01T01:49:12Z</time></trkpt>
			<trkpt lat="54.627587" lon="20.988692"><ele>18.0</ele><time>2020-10-01T01:49:20Z</time></trkpt>
			<trkpt lat="54.627369" lon="20.989115"><ele>18.0</ele><time>2020-10-01T01:49:27Z</time></trkpt>
			<trkpt lat="54.627289" lon="20.989400"><ele>17.9</ele><time>2020-10-01T01:49:30Z</time></trkpt>
			<trkpt lat="54.627617" lon="20.996057"><ele>15.7</ele><time>2020-10-01T01:50:48Z</time></trkpt>
			<trkpt lat="54.627629" lon="20.997174"><ele>16.2</ele><time>2020-10-01T01:51:01Z</time></trkpt>
			<trkpt lat="54.627505" lon="21.000576"><ele>9.6</ele><time>2020-10-01T01:51:40Z</time></trkpt>
			<trkpt lat="54.627426" lon="21.003830"><ele>5.1</ele><time>2020-10-01T01:52:18Z</time></trkpt>
			<trkpt lat="54.627304" lon="21.006293"><ele>5.2</ele><time>2020-10-01T01:52:47Z</time></trkpt>
			<trkpt lat="54.627253" lon="21.006645"><ele>4.9</ele><time>2020-10-01T01:52:51Z</time></trkpt>
			<trkpt lat="54.627147" lon="21.007083"><ele>4.7</ele><time>2020-10-01T01:52:57Z</time></trkpt>
			<trkpt lat="54.626977" lon="21.007506"><ele>5.4</ele><time>2020-10-01T01:53:03Z</time></trkpt>
			<trkpt lat="54.626412" lon="21.008596"><ele>6.6</ele><time>2020-10-01T01:53:19Z</time></trkpt>
			<trkpt lat="54.626059" lon="21.009346"><ele>7.0</ele><time>2020-10-01T01:53:31Z</time></trkpt>
			<trkpt lat="54.625808" lon="21.009988"><ele>6.2</ele><time>2020-10-01T01:53:40Z</time></trkpt>
			<trkpt lat="54.624846" lon="21.014327"><ele>4.6</ele><time>2020-10-01T01:54:34Z</time></trkpt>
			<trkpt lat="54.624676" lon="21.014994"><ele>4.6</ele><time>2020-10-01T01:54:42Z</time></trkpt>
			<trkpt lat="54.624253" lon="21.016282"><ele>3.3</ele><time>2020-10-01T01:54:59Z</time></trkpt>
			<trkpt lat="54.622235" lon="21.021053"><ele>0.7</ele><time>2020-10-01T01:56:08Z</time></trkpt>
			<trkpt lat="54.621105" lon="21.023622"><ele>0.8</ele><time>2020-10-01T01:56:45Z</time></trkpt>
			<trkpt lat="54.619705" lon="21.027004"><ele>2.3</ele><time>2020-10-01T01:57:33Z</time></trkpt>
			<trkpt lat="54.619385" lon="21.028022"><ele>2.5</ele><time>2020-10-01T01:57:47Z</time></trkpt>
			<trkpt lat="54.618944" lon="21.029815"><ele>2.5</ele><time>2020-10-01T01:58:09Z</time></trkpt>
			<trkpt lat="54.618651" lon="21.031346"><ele>2.1</ele><time>2020-10-01T01:58:28Z</time></trkpt>
			<trkpt lat="54.618529" lon="21.032203"><ele>1.6</ele><time>2020-10-01T01:58:38Z</time></trkpt>
			<trkpt lat="54.618451" lon="21.033013"><ele>1.2</ele><time>2020-10-01T01:58:48Z</time></trkpt>
			<trkpt lat="54.618375" lon="21.035028"><ele>1.0</ele><time>2020-10-01T01:59:11Z</time></trkpt>
			<trkpt lat="54.618395" lon="21.035994"><ele>1.0</ele><time>2020-10-01T01:59:23Z</time></trkpt>
			<trkpt lat="54.618470" lon="21.037240"><ele>1.9</ele><time>2020-10-01T01:59:37Z</time></trkpt>
			<trkpt lat="54.618598" lon="21.038499"><ele>3.0</ele><time>2020-10-01T01:59:52Z</time></trkpt>
			<trkpt lat="54.619013" lon="21.041271"><ele>2.5</ele><time>2020-10-01T02:00:25Z</time></trkpt>
			<trkpt lat="54.619912" lon="21.046765"><ele>1.2</ele><time>2020-10-01T02:01:31Z</time></trkpt>
			<trkpt lat="54.620262" lon="21.048376"><ele>-0.7</ele><time>2020-10-01T02:01:51Z</time></trkpt>
			<trkpt lat="54.620450" lon="21.048997"><ele>-1.4</ele><time>2020-10-01T02:02:00Z</time></trkpt>
			<trkpt lat="54.620558" lon="21.049676"><ele>-1.7</ele><time>2020-10-01T02:02:08Z</time></trkpt>
			<trkpt lat="54.620638" lon="21.050670"><ele>-1.2</ele><time>2020-10-01T02:02:19Z</time></trkpt>
			<trkpt lat="54.620729" lon="21.051349"><ele>-0.9</ele><time>2020-10-01T02:02:27Z</time></trkpt>
			<trkpt lat="54.620809" lon="21.051870"><ele>-0.7</ele><time>2020-10-01T02:02:34Z</time></trkpt>
			<trkpt lat="54.620945" lon="21.052303"><ele>-0.5</ele><time>2020-10-01T02:02:39Z</time></trkpt>
			<trkpt lat="54.621663" lon="21.053229"><ele>-1.1</ele><time>2020-10-01T02:02:57Z</time></trkpt>
			<trkpt lat="54.622208" lon="21.054045"><ele>-0.7</ele><time>2020-10-01T02:03:12Z</time></trkpt>
			<trkpt lat="54.622397" lon="21.054458"><ele>-0.6</ele><time>2020-10-01T02:03:18Z</time></trkpt>
			<trkpt lat="54.622464" lon="21.054726"><ele>-0.4</ele><time>2020-10-01T02:03:21Z</time></trkpt>
			<trkpt lat="54.622455" lon="21.054999"><ele>0.1</ele><time>2020-10-01T02:03:24Z</time></trkpt>
			<trkpt lat="54.622262" lon="21.055991"><ele>3.4</ele><time>2020-10-01T02:03:37Z</time></trkpt>
			<trkpt lat="54.620748" lon="21.061577"><ele>2.8</ele><time>2020-10-01T02:04:48Z</time></trkpt>
			<trkpt lat="54.620688" lon="21.062019"><ele>2.9</ele><time>2020-10-01T02:04:53Z</time></trkpt>
			<trkpt lat="54.620665" lon="21.062639"><ele>3.4</ele><time>2020-10-01T02:05:01Z</time></trkpt>
			<trkpt lat="54.620648" lon="21.064864"><ele>4.7</ele><time>2020-10-01T02:05:26Z</time></trkpt>
			<trkpt lat="54.620566" lon="21.065386"><ele>5.0</ele><time>2020-10-01T02:05:33Z</time></trkpt>
			<trkpt lat="54.620045" lon="21.067757"><ele>6.3</ele><time>2020-10-01T02:06:02Z</time></trkpt>
			<trkpt lat="54.619507" lon="21.069248"><ele>5.1</ele><time>2020-10-01T02:06:23Z</time></trkpt>
			<trkpt lat="54.619406" lon="21.069587"><ele>4.9</ele><time>2020-10-01T02:06:27Z</time></trkpt>
			<trkpt lat="54.619362" lon="21.069863"><ele>4.7</ele><time>2020-10-01T02:06:30Z</time></trkpt>
			<trkpt lat="54.628779" lon="21.068047"><ele>17.2</ele><time>2020-10-01T02:09:40Z</time></trkpt>
			<trkpt lat="54.629227" lon="21.067893"><ele>17.5</ele><time>2020-10-01T02:09:49Z</time></trkpt>
			<trkpt lat="54.630120" lon="21.067405"><ele>14.6</ele><time>2020-10-01T02:10:08Z</time></trkpt>
			<trkpt lat="54.631034" lon="21.066846"><ele>11.0</ele><time>2020-10-01T02:10:28Z</time></trkpt>
			<trkpt lat="54.631234" lon="21.066760"><ele>10.7</ele><time>2020-10-01T02:10:32Z</time></trkpt>
			<trkpt lat="54.631462" lon="21.066841"><ele>10.5</ele><time>2020-10-01T02:10:36Z</time></trkpt>
			<trkpt lat="54.631786" lon="21.067044"><ele>9.8</ele><time>2020-10-01T02:10:43Z</time></trkpt>
			<trkpt lat="54.631955" lon="21.067286"><ele>8.9</ele><time>2020-10-01T02:10:48Z</time></trkpt>
			<trkpt lat="54.632074" lon="21.067570"><ele>8.1</ele><time>2020-10-01T02:10:52Z</time></trkpt>
			<trkpt lat="54.635178" lon="21.075907"><ele>3.2</ele><time>2020-10-01T02:12:47Z</time></trkpt>
			<trkpt lat="54.635373" lon="21.076234"><ele>3.2</ele><time>2020-10-01T02:12:52Z</time></trkpt>
			<trkpt lat="54.635540" lon="21.076425"><ele>3.4</ele><time>2020-10-01T02:12:56Z</time></trkpt>
			<trkpt lat="54.635650" lon="21.076487"><ele>3.6</ele><time>2020-10-01T02:12:58Z</time></trkpt>
			<trkpt lat="54.636187" lon="21.076310"><ele>4.2</ele><time>2020-10-01T02:13:09Z</time></trkpt>
			<trkpt lat="54.636881" lon="21.076133"><ele>4.4</ele><time>2020-10-01T02:13:23Z</time></trkpt>
			<trkpt lat="54.637735" lon="21.076005"><ele>3.6</ele><time>2020-10-01T02:13:41Z</time></trkpt>
			<trkpt lat="54.637929" lon="21.076047"><ele>3.1</ele><time>2020-10-01T02:13:45Z</time></trkpt>
			<trkpt lat="54.640212" lon="21.077848"><ele>-3.6</ele><time>2020-10-01T02:14:35Z</time></trkpt>
			<trkpt lat="54.640400" lon="21.077909"><ele>-3.3</ele><time>2020-10-01T02:14:39Z</time></trkpt>
			<trkpt lat="54.640558" lon="21.077907"><ele>-3.0</ele><time>2020-10-01T02:14:42Z</time></trkpt>
			<trkpt lat="54.643414" lon="21.076416"><ele>3.6</ele><time>2020-10-01T02:15:42Z</time></trkpt>
			<trkpt lat="54.645993" lon="21.075141"><ele>1.2</ele><time>2020-10-01T02:16:35Z</time></trkpt>
			<trkpt lat="54.646504" lon="21.075000"><ele>2.6</ele><time>2020-10-01T02:16:46Z</time></trkpt>
			<trkpt lat="54.647306" lon="21.074867"><ele>9.4</ele><time>2020-10-01T02:17:02Z</time></trkpt>
			<trkpt lat="54.647520" lon="21.074799"><ele>11.5</ele><time>2020-10-01T02:17:06Z</time></trkpt>
			<trkpt lat="54.647577" lon="21.074713"><ele>11.9</ele><time>2020-10-01T02:17:08Z</time></trkpt>
			<trkpt lat="54.647676" lon="21.074064"><ele>13.2</ele><time>2020-10-01T02:17:16Z</time></trkpt>
			<trkpt lat="54.647717" lon="21.073743"><ele>13.5</ele><time>2020-10-01T02:17:19Z</time></trkpt>
			<trkpt lat="54.647716" lon="21.073323"><ele>13.8</ele><time>2020-10-01T02:17:24Z</time></trkpt>
			<trkpt lat="54.647782" lon="21.073093"><ele>14.0</ele><time>2020-10-01T02:17:27Z</time></trkpt>
			<trkpt lat="54.647882" lon="21.072949"><ele>14.2</ele><time>2020-10-01T02:17:30Z</time></trkpt>
			<trkpt lat="54.648235" lon="21.072857"><ele>14.2</ele><time>2020-10-01T02:17:37Z</time></trkpt>
			<trkpt lat="54.650450" lon="21.072029"><ele>14.6</ele><time>2020-10-01T02:18:22Z</time></trkpt>
			<trkpt lat="54.650321" lon="21.070838"><ele>13.2</ele><time>2020-10-01T02:18:36Z</time></trkpt>
			<trkpt lat="54.650338" lon="21.070450"><ele>12.6</ele><time>2020-10-01T02:18:41Z</time></trkpt>
			<trkpt lat="54.650411" lon="21.070191"><ele>12.4</ele><time>2020-10-01T02:18:44Z</time></trkpt>
			<trkpt lat="54.650554" lon="21.069936"><ele>12.3</ele><time>2020-10-01T02:18:48Z</time></trkpt>
			<trkpt lat="54.650906" lon="21.066975"><ele>11.8</ele><time>2020-10-01T02:19:23Z</time></trkpt>
			<trkpt lat="54.650859" lon="21.063446"><ele>8.2</ele><time>2020-10-01T02:20:04Z</time></trkpt>
			<trkpt lat="54.650658" lon="21.057022"><ele>2.9</ele><time>2020-10-01T02:21:19Z</time></trkpt>
			<trkpt lat="54.650575" lon="21.055793"><ele>1.2</ele><time>2020-10-01T02:21:33Z</time></trkpt>
			<trkpt lat="54.650331" lon="21.052884"><ele>2.7</ele><time>2020-10-01T02:22:07Z</time></trkpt>
			<trkpt lat="54.650003" lon="21.049572"><ele>2.0</ele><time>2020-10-01T02:22:46Z</time></trkpt>
			<trkpt lat="54.649664" lon="21.046734"><ele>1.6</ele><time>2020-10-01T02:23:20Z</time></trkpt>
			<trkpt lat="54.649598" lon="21.045524"><ele>4.5</ele><time>2020-10-01T02:23:34Z</time></trkpt>
			<trkpt lat="54.649654" lon="21.044404"><ele>5.2</ele><time>2020-10-01T02:23:47Z</time></trkpt>
			<trkpt lat="54.649775" lon="21.043455"><ele>7.1</ele><time>2020-10-01T02:23:58Z</time></trkpt>
			<trkpt lat="54.650089" lon="21.041940"><ele>8.3</ele><time>2020-10-01T02:24:17Z</time></trkpt>
			<trkpt lat="54.652392" lon="21.032031"><ele>6.5</ele><time>2020-10-01T02:26:21Z</time></trkpt>
			<trkpt lat="54.654203" lon="21.023992"><ele>3.3</ele><time>2020-10-01T02:28:01Z</time></trkpt>
			<trkpt lat="54.655398" lon="21.019071"><ele>6.6</ele><time>2020-10-01T02:29:03Z</time></trkpt>
			<trkpt lat="54.661730" lon="20.991513"><ele>16.2</ele><time>2020-10-01T02:34:46Z</time></trkpt>
			<trkpt lat="54.662573" lon="20.988032"><ele>25.6</ele><time>2020-10-01T02:35:30Z</time></trkpt>
			<trkpt lat="54.662753" lon="20.987531"><ele>26.5</ele><time>2020-10-01T02:35:37Z</time></trkpt>
			<trkpt lat="54.665694" lon="20.980208"><ele>26.6</ele><time>2020-10-01T02:37:20Z</time></trkpt>
			<trkpt lat="54.667776" lon="20.975150"><ele>21.8</ele><time>2020-10-01T02:38:32Z</time></trkpt>
			<trkpt lat="54.668223" lon="20.974669"><ele>22.1</ele><time>2020-10-01T02:38:43Z</time></trkpt>
			<trkpt lat="54.668575" lon="20.974480"><ele>21.5</ele><time>2020-10-01T02:38:50Z</time></trkpt>
			<trkpt lat="54.670687" lon="20.973654"><ele>18.5</ele><time>2020-10-01T02:39:33Z</time></trkpt>
			<trkpt lat="54.670968" lon="20.973583"><ele>17.4</ele><time>2020-10-01T02:39:39Z</time></trkpt>
			<trkpt lat="54.671164" lon="20.973598"><ele>16.7</ele><time>2020-10-01T02:39:43Z</time></trkpt>
			<trkpt lat="54.671356" lon="20.973708"><ele>15.8</ele><time>2020-10-01T02:39:47Z</time></trkpt>
			<trkpt lat="54.673338" lon="20.975805"><ele>6.9</ele><time>2020-10-01T02:40:34Z</time></trkpt>
			<trkpt lat="54.674964" lon="20.977001"><ele>6.8</ele><time>2020-10-01T02:41:09Z</time></trkpt>
			<trkpt lat="54.674960" lon="20.976990"><ele>6.8</ele><time>2020-10-01T02:41:09Z</time></trkpt>
			<trkpt lat="54.675520" lon="20.977290"><ele>7.5</ele><time>2020-10-01T02:41:19Z</time></trkpt>
			<trkpt lat="54.676080" lon="20.977460"><ele>7.9</ele><time>2020-10-01T02:41:30Z</time></trkpt>
			<trkpt lat="54.676120" lon="20.981400"><ele>6.2</ele><time>2020-10-01T02:41:40Z</time></trkpt>
			<trkpt lat="54.676110" lon="20.984150"><ele>5.0</ele><time>2020-10-01T02:41:51Z</time></trkpt>
			<trkpt lat="54.676100" lon="20.986000"><ele>4.7</ele><time>2020-10-01T02:42:01Z</time></trkpt>
			<trkpt lat="54.676220" lon="20.986830"><ele>5.1</ele><time>2020-10-01T02:42:12Z</time></trkpt>
			<trkpt lat="54.676470" lon="20.987680"><ele>5.2</ele><time>2020-10-01T02:42:22Z</time></trkpt>
			<trkpt lat="54.676750" lon="20.988190"><ele>5.1</ele><time>2020-10-01T02:42:33Z</time></trkpt>
			<trkpt lat="54.676970" lon="20.988420"><ele>5.4</ele><time>2020-10-01T02:42:43Z</time></trkpt>
			<trkpt lat="54.677240" lon="20.988630"><ele>5.8</ele><time>2020-10-01T02:42:54Z</time></trkpt>
			<trkpt lat="54.677600" lon="20.988760"><ele>6.2</ele><time>2020-10-01T02:43:04Z</time></trkpt>
			<trkpt lat="54.677920" lon="20.988790"><ele>6.8</ele><time>2020-10-01T02:43:15Z</time></trkpt>
			<trkpt lat="54.678840" lon="20.988670"><ele>7.8</ele><time>2020-10-01T02:43:25Z</time></trkpt>
			<trkpt lat="54.679160" lon="20.988660"><ele>8.0</ele><time>2020-10-01T02:43:36Z</time></trkpt>
			<trkpt lat="54.679480" lon="20.988760"><ele>8.4</ele><time>2020-10-01T02:43:46Z</time></trkpt>
			<trkpt lat="54.680420" lon="20.989360"><ele>7.7</ele><time>2020-10-01T02:43:57Z</time></trkpt>
			<trkpt lat="54.680680" lon="20.989630"><ele>6.8</ele><time>2020-10-01T02:44:08Z</time></trkpt>
			<trkpt lat="54.681000" lon="20.990200"><ele>5.2</ele><time>2020-10-01T02:44:18Z</time></trkpt>
			<trkpt lat="54.681370" lon="20.990810"><ele>3.7</ele><time>2020-10-01T02:44:29Z</time></trkpt>
			<trkpt lat="54.682020" lon="20.991610"><ele>3.9</ele><time>2020-10-01T02:44:39Z</time></trkpt>
			<trkpt lat="54.682200" lon="20.991740"><ele>4.3</ele><time>2020-10-01T02:44:50Z</time></trkpt>
			<trkpt lat="54.682330" lon="20.991780"><ele>4.5</ele><time>2020-10-01T02:45:00Z</time></trkpt>
			<trkpt lat="54.682970" lon="20.991970"><ele>4.8</ele><time>2020-10-01T02:45:11Z</time></trkpt>
			<trkpt lat="54.683740" lon="20.992260"><ele>5.8</ele><time>2020-10-01T02:45:21Z</time></trkpt>
			<trkpt lat="54.684160" lon="20.992450"><ele>6.9</ele><time>2020-10-01T02:45:32Z</time></trkpt>
			<trkpt lat="54.684250" lon="20.992470"><ele>7.2</ele><time>2020-10-01T02:45:42Z</time></trkpt>
			<trkpt lat="54.685810" lon="20.992800"><ele>9.0</ele><time>2020-10-01T02:45:53Z</time></trkpt>
			<trkpt lat="54.686360" lon="20.992840"><ele>8.6</ele><time>2020-10-01T02:46:03Z</time></trkpt>
			<trkpt lat="54.686770" lon="20.992920"><ele>8.4</ele><time>2020-10-01T02:46:14Z</time></trkpt>
			<trkpt lat="54.688700" lon="20.993370"><ele>8.9</ele><time>2020-10-01T02:46:24Z</time></trkpt>
			<trkpt lat="54.690750" lon="20.993800"><ele>11.9</ele><time>2020-10-01T02:46:35Z</time></trkpt>
			<trkpt lat="54.691500" lon="20.993760"><ele>13.2</ele><time>2020-10-01T02:46:46Z</time></trkpt>
			<trkpt lat="54.691600" lon="20.993690"><ele>13.5</ele><time>2020-10-01T02:46:56Z</time></trkpt>
			<trkpt lat="54.691680" lon="20.993540"><ele>13.8</ele><time>2020-10-01T02:47:07Z</time></trkpt>
			<trkpt lat="54.691850" lon="20.992920"><ele>14.2</ele><time>2020-10-01T02:47:17Z</time></trkpt>
			<trkpt lat="54.692240" lon="20.990600"><ele>10.9</ele><time>2020-10-01T02:47:28Z</time></trkpt>
			<trkpt lat="54.692330" lon="20.989830"><ele>11.0</ele><time>2020-10-01T02:47:38Z</time></trkpt>
			<trkpt lat="54.692350" lon="20.989740"><ele>11.1</ele><time>2020-10-01T02:47:49Z</time></trkpt>
			<trkpt lat="54.692670" lon="20.987470"><ele>9.4</ele><time>2020-10-01T02:47:59Z</time></trkpt>
			<trkpt lat="54.692700" lon="20.987000"><ele>9.0</ele><time>2020-10-01T02:48:10Z</time></trkpt>
			<trkpt lat="54.692590" lon="20.985810"><ele>7.9</ele><time>2020-10-01T02:48:20Z</time></trkpt>
			<trkpt lat="54.692400" lon="20.984010"><ele>5.0</ele><time>2020-10-01T02:48:31Z</time></trkpt>
			<trkpt lat="54.692310" lon="20.982920"><ele>4.7</ele><time>2020-10-01T02:48:41Z</time></trkpt>
			<trkpt lat="54.692310" lon="20.982850"><ele>4.7</ele><time>2020-10-01T02:48:52Z</time></trkpt>
			<trkpt lat="54.692360" lon="20.982190"><ele>4.0</ele><time>2020-10-01T02:49:02Z</time></trkpt>
			<trkpt lat="54.692420" lon="20.981660"><ele>3.0</ele><time>2020-10-01T02:49:13Z</time></trkpt>
			<trkpt lat="54.692840" lon="20.980480"><ele>3.5</ele><time>2020-10-01T02:49:24Z</time></trkpt>
			<trkpt lat="54.692840" lon="20.980480"><ele>3.5</ele><time>2020-10-01T02:49:24Z</time></trkpt>
			<trkpt lat="54.694250" lon="20.976650"><ele>4.7</ele><time>2020-10-01T02:49:39Z</time></trkpt>
			<trkpt lat="54.694550" lon="20.975890"><ele>4.5</ele><time>2020-10-01T02:49:54Z</time></trkpt>
			<trkpt lat="54.695010" lon="20.975030"><ele>5.9</ele><time>2020-10-01T02:50:09Z</time></trkpt>
			<trkpt lat="54.695450" lon="20.973920"><ele>7.8</ele><time>2020-10-01T02:50:24Z</time></trkpt>
			<trkpt lat="54.695600" lon="20.973280"><ele>8.7</ele><time>2020-10-01T02:50:39Z</time></trkpt>
			<trkpt lat="54.695700" lon="20.972330"><ele>9.9</ele><time>2020-10-01T02:50:54Z</time></trkpt>
			<trkpt lat="54.695770" lon="20.972140"><ele>10.2</ele><time>2020-10-01T02:51:09Z</time></trkpt>
			<trkpt lat="54.695980" lon="20.972040"><ele>10.4</ele><time>2020-10-01T02:51:24Z</time></trkpt>
			<trkpt lat="54.696720" lon="20.971910"><ele>9.7</ele><time>2020-10-01T02:51:39Z</time></trkpt>
			<trkpt lat="54.697140" lon="20.971910"><ele>9.3</ele><time>2020-10-01T02:51:54Z</time></trkpt>
			<trkpt lat="54.697600" lon="20.971990"><ele>8.9</ele><time>2020-10-01T02:52:09Z</time></trkpt>
			<trkpt lat="54.698700" lon="20.972290"><ele>7.5</ele><time>2020-10-01T02:52:24Z</time></trkpt>
			<trkpt lat="54.700700" lon="20.972610"><ele>9.7</ele><time>2020-10-01T02:52:39Z</time></trkpt>
			<trkpt lat="54.701630" lon="20.972720"><ele>8.8</ele><time>2020-10-01T02:52:54Z</time></trkpt>
			<trkpt lat="54.701730" lon="20.972710"><ele>8.8</ele><time>2020-10-01T02:53:09Z</time></trkpt>
			<trkpt lat="54.701800" lon="20.972650"><ele>8.8</ele><time>2020-10-01T02:53:24Z</time></trkpt>
			<trkpt lat="54.701860" lon="20.972530"><ele>8.9</ele><time>2020-10-01T02:53:39Z</time></trkpt>
			<trkpt lat="54.701940" lon="20.971920"><ele>8.8</ele><time>2020-10-01T02:53:54Z</time></trkpt>
			<trkpt lat="54.702020" lon="20.970590"><ele>8.8</ele><time>2020-10-01T02:54:09Z</time></trkpt>
			<trkpt lat="54.702160" lon="20.967450"><ele>8.5</ele><time>2020-10-01T02:54:24Z</time></trkpt>
			<trkpt lat="54.702300" lon="20.964250"><ele>11.1</ele><time>2020-10-01T02:54:39Z</time></trkpt>
			<trkpt lat="54.702420" lon="20.963570"><ele>12.3</ele><time>2020-10-01T02:54:54Z</time></trkpt>
			<trkpt lat="54.702720" lon="20.962350"><ele>12.0</ele><time>2020-10-01T02:55:09Z</time></trkpt>
			<trkpt lat="54.703480" lon="20.959590"><ele>13.4</ele><time>2020-10-01T02:55:24Z</time></trkpt>
			<trkpt lat="54.703540" lon="20.959210"><ele>14.6</ele><time>2020-10-01T02:55:39Z</time></trkpt>
			<trkpt lat="54.703570" lon="20.958780"><ele>14.6</ele><time>2020-10-01T02:55:54Z</time></trkpt>
			<trkpt lat="54.703640" lon="20.957520"><ele>14.4</ele><time>2020-10-01T02:56:09Z</time></trkpt>
			<trkpt lat="54.703720" lon="20.956970"><ele>14.0</ele><time>2020-10-01T02:56:24Z</time></trkpt>
			<trkpt lat="54.703830" lon="20.956500"><ele>13.2</ele><time>2020-10-01T02:56:39Z</time></trkpt>
			<trkpt lat="54.704040" lon="20.955840"><ele>11.3</ele><time>2020-10-01T02:56:54Z</time></trkpt>
			<trkpt lat="54.705570" lon="20.951870"><ele>12.6</ele><time>2020-10-01T02:57:09Z</time></trkpt>
			<trkpt lat="54.706240" lon="20.950050"><ele>13.0</ele><time>2020-10-01T02:57:24Z</time></trkpt>
			<trkpt lat="54.709830" lon="20.950820"><ele>13.0</ele><time>2020-10-01T02:57:39Z</time></trkpt>
			<trkpt lat="54.711306" lon="20.951648"><ele>15.4</ele><time>2020-10-01T02:58:10Z</time></trkpt>
			<trkpt lat="54.713260" lon="20.952803"><ele>15.9</ele><time>2020-10-01T02:58:52Z</time></trkpt>
			<trkpt lat="54.714008" lon="20.953375"><ele>14.3</ele><time>2020-10-01T02:59:08Z</time></trkpt>
			<trkpt lat="54.714339" lon="20.953773"><ele>12.8</ele><time>2020-10-01T02:59:16Z</time></trkpt>
			<trkpt lat="54.718842" lon="20.959753"><ele>13.0</ele><time>2020-10-01T03:01:10Z</time></trkpt>
			<trkpt lat="54.720462" lon="20.962009"><ele>15.7</ele><time>2020-10-01T03:01:52Z</time></trkpt>
			<trkpt lat="54.725450" lon="20.968059"><ele>11.1</ele><time>2020-10-01T03:03:54Z</time></trkpt>
			<trkpt lat="54.728868" lon="20.971899"><ele>11.0</ele><time>2020-10-01T03:05:15Z</time></trkpt>
			<trkpt lat="54.729415" lon="20.972620"><ele>10.4</ele><time>2020-10-01T03:05:29Z</time></trkpt>
			<trkpt lat="54.730754" lon="20.975147"><ele>12.1</ele><time>2020-10-01T03:06:09Z</time></trkpt>
			<trkpt lat="54.731428" lon="20.976197"><ele>12.9</ele><time>2020-10-01T03:06:27Z</time></trkpt>
			<trkpt lat="54.732568" lon="20.976883"><ele>13.9</ele><time>2020-10-01T03:06:51Z</time></trkpt>
			<trkpt lat="54.732956" lon="20.977480"><ele>13.5</ele><time>2020-10-01T03:07:01Z</time></trkpt>
			<trkpt lat="54.733373" lon="20.978327"><ele>13.0</ele><time>2020-10-01T03:07:14Z</time></trkpt>
			<trkpt lat="54.734349" lon="20.980013"><ele>13.8</ele><time>2020-10-01T03:07:42Z</time></trkpt>
			<trkpt lat="54.737729" lon="20.971666"><ele>17.4</ele><time>2020-10-01T03:09:40Z</time></trkpt>
			<trkpt lat="54.738027" lon="20.971079"><ele>20.0</ele><time>2020-10-01T03:09:49Z</time></trkpt>
			<trkpt lat="54.741854" lon="20.964507"><ele>18.2</ele><time>2020-10-01T03:11:37Z</time></trkpt>
			<trkpt lat="54.748270" lon="20.953870"><ele>17.8</ele><time>2020-10-01T03:14:35Z</time></trkpt>
			<trkpt lat="54.749324" lon="20.952030"><ele>18.2</ele><time>2020-10-01T03:15:05Z</time></trkpt>
			<trkpt lat="54.749557" lon="20.951476"><ele>18.0</ele><time>2020-10-01T03:15:13Z</time></trkpt>
			<trkpt lat="54.750230" lon="20.946494"><ele>16.8</ele><time>2020-10-01T03:16:12Z</time></trkpt>
			<trkpt lat="54.750774" lon="20.943263"><ele>16.2</ele><time>2020-10-01T03:16:51Z</time></trkpt>
			<trkpt lat="54.754770" lon="20.928994"><ele>16.1</ele><time>2020-10-01T03:19:54Z</time></trkpt>
			<trkpt lat="54.756148" lon="20.924198"><ele>7.2</ele><time>2020-10-01T03:20:56Z</time></trkpt>
			<trkpt lat="54.757573" lon="20.918676"><ele>7.6</ele><time>2020-10-01T03:22:06Z</time></trkpt>
			<trkpt lat="54.757974" lon="20.917256"><ele>8.1</ele><time>2020-10-01T03:22:24Z</time></trkpt>
			<trkpt lat="54.758233" lon="20.916710"><ele>8.1</ele><time>2020-10-01T03:22:33Z</time></trkpt>
			<trkpt lat="54.766978" lon="20.902411"><ele>8.1</ele><time>2020-10-01T03:26:34Z</time></trkpt>
			<trkpt lat="54.767101" lon="20.902155"><ele>8.4</ele><time>2020-10-01T03:26:37Z</time></trkpt>
			<trkpt lat="54.767177" lon="20.901870"><ele>8.8</ele><time>2020-10-01T03:26:41Z</time></trkpt>
			<trkpt lat="54.767156" lon="20.901500"><ele>8.9</ele><time>2020-10-01T03:26:45Z</time></trkpt>
			<trkpt lat="54.766629" lon="20.899433"><ele>7.3</ele><time>2020-10-01T03:27:11Z</time></trkpt>
			<trkpt lat="54.766597" lon="20.898789"><ele>7.0</ele><time>2020-10-01T03:27:19Z</time></trkpt>
			<trkpt lat="54.766652" lon="20.898444"><ele>7.0</ele><time>2020-10-01T03:27:23Z</time></trkpt>
			<trkpt lat="54.766896" lon="20.897834"><ele>7.5</ele><time>2020-10-01T03:27:32Z</time></trkpt>
			<trkpt lat="54.767112" lon="20.897554"><ele>8.0</ele><time>2020-10-01T03:27:37Z</time></trkpt>
			<trkpt lat="54.770615" lon="20.895043"><ele>8.7</ele><time>2020-10-01T03:28:53Z</time></trkpt>
			<trkpt lat="54.780163" lon="20.887972"><ele>8.8</ele><time>2020-10-01T03:32:21Z</time></trkpt>
			<trkpt lat="54.780338" lon="20.887962"><ele>8.6</ele><time>2020-10-01T03:32:25Z</time></trkpt>
			<trkpt lat="54.782555" lon="20.888879"><ele>8.1</ele><time>2020-10-01T03:33:10Z</time></trkpt>
			<trkpt lat="54.782729" lon="20.888910"><ele>8.3</ele><time>2020-10-01T03:33:14Z</time></trkpt>
			<trkpt lat="54.782927" lon="20.888848"><ele>8.5</ele><time>2020-10-01T03:33:18Z</time></trkpt>
			<trkpt lat="54.784764" lon="20.887728"><ele>9.3</ele><time>2020-10-01T03:33:57Z</time></trkpt>
			<trkpt lat="54.785012" lon="20.887522"><ele>8.9</ele><time>2020-10-01T03:34:02Z</time></trkpt>
			<trkpt lat="54.785439" lon="20.886917"><ele>7.5</ele><time>2020-10-01T03:34:13Z</time></trkpt>
			<trkpt lat="54.785580" lon="20.886783"><ele>7.6</ele><time>2020-10-01T03:34:17Z</time></trkpt>
			<trkpt lat="54.785728" lon="20.886681"><ele>7.8</ele><time>2020-10-01T03:34:20Z</time></trkpt>
			<trkpt lat="54.786058" lon="20.886554"><ele>8.0</ele><time>2020-10-01T03:34:27Z</time></trkpt>
			<trkpt lat="54.786534" lon="20.886189"><ele>8.5</ele><time>2020-10-01T03:34:37Z</time></trkpt>
			<trkpt lat="54.786772" lon="20.885803"><ele>8.8</ele><time>2020-10-01T03:34:44Z</time></trkpt>
			<trkpt lat="54.787061" lon="20.885227"><ele>8.5</ele><time>2020-10-01T03:34:52Z</time></trkpt>
			<trkpt lat="54.787988" lon="20.883724"><ele>8.3</ele><time>2020-10-01T03:35:18Z</time></trkpt>
			<trkpt lat="54.788797" lon="20.882168"><ele>9.2</ele><time>2020-10-01T03:35:42Z</time></trkpt>
			<trkpt lat="54.789050" lon="20.881795"><ele>9.7</ele><time>2020-10-01T03:35:49Z</time></trkpt>
			<trkpt lat="54.791069" lon="20.879879"><ele>11.0</ele><time>2020-10-01T03:36:35Z</time></trkpt>
			<trkpt lat="54.791830" lon="20.879234"><ele>12.3</ele><time>2020-10-01T03:36:52Z</time></trkpt>
			<trkpt lat="54.792085" lon="20.879104"><ele>12.9</ele><time>2020-10-01T03:36:57Z</time></trkpt>
			<trkpt lat="54.792501" lon="20.879069"><ele>13.6</ele><time>2020-10-01T03:37:05Z</time></trkpt>
			<trkpt lat="54.793209" lon="20.879078"><ele>12.1</ele><time>2020-10-01T03:37:20Z</time></trkpt>
			<trkpt lat="54.797503" lon="20.879360"><ele>12.5</ele><time>2020-10-01T03:38:46Z</time></trkpt>
			<trkpt lat="54.798497" lon="20.879379"><ele>12.3</ele><time>2020-10-01T03:39:06Z</time></trkpt>
			<trkpt lat="54.799102" lon="20.879325"><ele>9.3</ele><time>2020-10-01T03:39:18Z</time></trkpt>
			<trkpt lat="54.799145" lon="20.878972"><ele>9.6</ele><time>2020-10-01T03:39:22Z</time></trkpt>
			<trkpt lat="54.799042" lon="20.877815"><ele>9.4</ele><time>2020-10-01T03:39:35Z</time></trkpt>
			<trkpt lat="54.799039" lon="20.877416"><ele>8.3</ele><time>2020-10-01T03:39:40Z</time></trkpt>
			<trkpt lat="54.799154" lon="20.876605"><ele>9.1</ele><time>2020-10-01T03:39:50Z</time></trkpt>
			<trkpt lat="54.799260" lon="20.876279"><ele>9.4</ele><time>2020-10-01T03:39:54Z</time></trkpt>
			<trkpt lat="54.799409" lon="20.875908"><ele>9.6</ele><time>2020-10-01T03:39:59Z</time></trkpt>
			<trkpt lat="54.800298" lon="20.874064"><ele>8.9</ele><time>2020-10-01T03:40:27Z</time></trkpt>
			<trkpt lat="54.802474" lon="20.870290"><ele>9.3</ele><time>2020-10-01T03:41:29Z</time></trkpt>
			<trkpt lat="54.802699" lon="20.869998"><ele>8.8</ele><time>2020-10-01T03:41:34Z</time></trkpt>
			<trkpt lat="54.802885" lon="20.869832"><ele>8.5</ele><time>2020-10-01T03:41:39Z</time></trkpt>
			<trkpt lat="54.803016" lon="20.869847"><ele>8.3</ele><time>2020-10-01T03:41:41Z</time></trkpt>
			<trkpt lat="54.804405" lon="20.870868"><ele>6.0</ele><time>2020-10-01T03:42:11Z</time></trkpt>
			<trkpt lat="54.804991" lon="20.871109"><ele>6.3</ele><time>2020-10-01T03:42:23Z</time></trkpt>
			<trkpt lat="54.805465" lon="20.871041"><ele>6.1</ele><time>2020-10-01T03:42:33Z</time></trkpt>
			<trkpt lat="54.805892" lon="20.870874"><ele>6.1</ele><time>2020-10-01T03:42:42Z</time></trkpt>
			<trkpt lat="54.806488" lon="20.870805"><ele>6.8</ele><time>2020-10-01T03:42:54Z</time></trkpt>
			<trkpt lat="54.808774" lon="20.871156"><ele>8.5</ele><time>2020-10-01T03:43:40Z</time></trkpt>
			<trkpt lat="54.810972" lon="20.871445"><ele>9.2</ele><time>2020-10-01T03:44:24Z</time></trkpt>
			<trkpt lat="54.813107" lon="20.871812"><ele>11.7</ele><time>2020-10-01T03:45:07Z</time></trkpt>
			<trkpt lat="54.813117" lon="20.872693"><ele>11.8</ele><time>2020-10-01T03:45:17Z</time></trkpt>
			<trkpt lat="54.820053" lon="20.874651"><ele>6.5</ele><time>2020-10-01T03:47:38Z</time></trkpt>
			<trkpt lat="54.820250" lon="20.874767"><ele>6.2</ele><time>2020-10-01T03:47:42Z</time></trkpt>
			<trkpt lat="54.820388" lon="20.874879"><ele>6.0</ele><time>2020-10-01T03:47:45Z</time></trkpt>
			<trkpt lat="54.822037" lon="20.877325"><ele>4.6</ele><time>2020-10-01T03:48:29Z</time></trkpt>
			<trkpt lat="54.822159" lon="20.877475"><ele>4.4</ele><time>2020-10-01T03:48:32Z</time></trkpt>
			<trkpt lat="54.822451" lon="20.877709"><ele>3.8</ele><time>2020-10-01T03:48:38Z</time></trkpt>
			<trkpt lat="54.823206" lon="20.877796"><ele>3.1</ele><time>2020-10-01T03:48:53Z</time></trkpt>
			<trkpt lat="54.826915" lon="20.878068"><ele>1.8</ele><time>2020-10-01T03:50:08Z</time></trkpt>
			<trkpt lat="54.826999" lon="20.878050"><ele>1.8</ele><time>2020-10-01T03:50:09Z</time></trkpt>
			<trkpt lat="54.827086" lon="20.877985"><ele>1.7</ele><time>2020-10-01T03:50:11Z</time></trkpt>
			<trkpt lat="54.827129" lon="20.877854"><ele>1.8</ele><time>2020-10-01T03:50:13Z</time></trkpt>
			<trkpt lat="54.829142" lon="20.863918"><ele>7.0</ele><time>2020-10-01T03:52:59Z</time></trkpt>
			<trkpt lat="54.830098" lon="20.856919"><ele>8.2</ele><time>2020-10-01T03:54:22Z</time></trkpt>
			<trkpt lat="54.830166" lon="20.856674"><ele>8.1</ele><time>2020-10-01T03:54:25Z</time></trkpt>
			<trkpt lat="54.830547" lon="20.856042"><ele>8.5</ele><time>2020-10-01T03:54:35Z</time></trkpt>
			<trkpt lat="54.830906" lon="20.855580"><ele>8.9</ele><time>2020-10-01T03:54:44Z</time></trkpt>
			<trkpt lat="54.838338" lon="20.846720"><ele>9.0</ele><time>2020-10-01T03:57:45Z</time></trkpt>
			<trkpt lat="54.838527" lon="20.846479"><ele>9.0</ele><time>2020-10-01T03:57:50Z</time></trkpt>
			<trkpt lat="54.838814" lon="20.845997"><ele>8.9</ele><time>2020-10-01T03:57:58Z</time></trkpt>
			<trkpt lat="54.838916" lon="20.845985"><ele>8.9</ele><time>2020-10-01T03:58:00Z</time></trkpt>
			<trkpt lat="54.840045" lon="20.846325"><ele>9.2</ele><time>2020-10-01T03:58:23Z</time></trkpt>
			<trkpt lat="54.843223" lon="20.847751"><ele>7.7</ele><time>2020-10-01T03:59:28Z</time></trkpt>
			<trkpt lat="54.843362" lon="20.847652"><ele>7.7</ele><time>2020-10-01T03:59:32Z</time></trkpt>
			<trkpt lat="54.844472" lon="20.842855"><ele>6.6</ele><time>2020-10-01T04:00:31Z</time></trkpt>
			<trkpt lat="54.849455" lon="20.822659"><ele>7.0</ele><time>2020-10-01T04:04:45Z</time></trkpt>
			<trkpt lat="54.853822" lon="20.805214"><ele>6.1</ele><time>2020-10-01T04:08:24Z</time></trkpt>
			<trkpt lat="54.853968" lon="20.804498"><ele>5.9</ele><time>2020-10-01T04:08:33Z</time></trkpt>
			<trkpt lat="54.853985" lon="20.804274"><ele>6.0</ele><time>2020-10-01T04:08:35Z</time></trkpt>
			<trkpt lat="54.854035" lon="20.799839"><ele>6.0</ele><time>2020-10-01T04:09:27Z</time></trkpt>
			<trkpt lat="54.854093" lon="20.799702"><ele>6.0</ele><time>2020-10-01T04:09:29Z</time></trkpt>
			<trkpt lat="54.854193" lon="20.799577"><ele>6.0</ele><time>2020-10-01T04:09:31Z</time></trkpt>
			<trkpt lat="54.854308" lon="20.799531"><ele>5.8</ele><time>2020-10-01T04:09:33Z</time></trkpt>
			<trkpt lat="54.854861" lon="20.799456"><ele>5.2</ele><time>2020-10-01T04:09:45Z</time></trkpt>
			<trkpt lat="54.854979" lon="20.799414"><ele>5.1</ele><time>2020-10-01T04:09:47Z</time></trkpt>
			<trkpt lat="54.859285" lon="20.795616"><ele>3.3</ele><time>2020-10-01T04:11:24Z</time></trkpt>
			<trkpt lat="54.859328" lon="20.795491"><ele>3.4</ele><time>2020-10-01T04:11:25Z</time></trkpt>
			<trkpt lat="54.859335" lon="20.795287"><ele>3.6</ele><time>2020-10-01T04:11:28Z</time></trkpt>
			<trkpt lat="54.859132" lon="20.793610"><ele>4.7</ele><time>2020-10-01T04:11:48Z</time></trkpt>
			<trkpt lat="54.858851" lon="20.791794"><ele>4.5</ele><time>2020-10-01T04:12:09Z</time></trkpt>
			<trkpt lat="54.858857" lon="20.789304"><ele>5.5</ele><time>2020-10-01T04:12:38Z</time></trkpt>
			<trkpt lat="54.858973" lon="20.784101"><ele>4.9</ele><time>2020-10-01T04:13:38Z</time></trkpt>
			<trkpt lat="54.858935" lon="20.783294"><ele>4.3</ele><time>2020-10-01T04:13:47Z</time></trkpt>
			<trkpt lat="54.858623" lon="20.781459"><ele>4.6</ele><time>2020-10-01T04:14:09Z</time></trkpt>
			<trkpt lat="54.858611" lon="20.780877"><ele>4.4</ele><time>2020-10-01T04:14:16Z</time></trkpt>
			<trkpt lat="54.858664" lon="20.779957"><ele>4.6</ele><time>2020-10-01T04:14:27Z</time></trkpt>
			<trkpt lat="54.859584" lon="20.769111"><ele>5.1</ele><time>2020-10-01T04:16:33Z</time></trkpt>
			<trkpt lat="54.859651" lon="20.768561"><ele>5.7</ele><time>2020-10-01T04:16:40Z</time></trkpt>
			<trkpt lat="54.859737" lon="20.768195"><ele>6.0</ele><time>2020-10-01T04:16:44Z</time></trkpt>
			<trkpt lat="54.859981" lon="20.767471"><ele>6.0</ele><time>2020-10-01T04:16:54Z</time></trkpt>
			<trkpt lat="54.860415" lon="20.766589"><ele>6.4</ele><time>2020-10-01T04:17:07Z</time></trkpt>
			<trkpt lat="54.860903" lon="20.765828"><ele>6.0</ele><time>2020-10-01T04:17:20Z</time></trkpt>
			<trkpt lat="54.861114" lon="20.765570"><ele>6.0</ele><time>2020-10-01T04:17:26Z</time></trkpt>
			<trkpt lat="54.861626" lon="20.765079"><ele>6.0</ele><time>2020-10-01T04:17:37Z</time></trkpt>
			<trkpt lat="54.861818" lon="20.764834"><ele>6.0</ele><time>2020-10-01T04:17:42Z</time></trkpt>
			<trkpt lat="54.861978" lon="20.764542"><ele>6.2</ele><time>2020-10-01T04:17:47Z</time></trkpt>
			<trkpt lat="54.863539" lon="20.760927"><ele>6.8</ele><time>2020-10-01T04:18:39Z</time></trkpt>
			<trkpt lat="54.864078" lon="20.759866"><ele>5.9</ele><time>2020-10-01T04:18:55Z</time></trkpt>
			<trkpt lat="54.864480" lon="20.759292"><ele>5.5</ele><time>2020-10-01T04:19:06Z</time></trkpt>
			<trkpt lat="54.864859" lon="20.759059"><ele>5.7</ele><time>2020-10-01T04:19:14Z</time></trkpt>
			<trkpt lat="54.865149" lon="20.758992"><ele>5.6</ele><time>2020-10-01T04:19:20Z</time></trkpt>
			<trkpt lat="54.865438" lon="20.758976"><ele>5.4</ele><time>2020-10-01T04:19:25Z</time></trkpt>
			<trkpt lat="54.865987" lon="20.759076"><ele>5.2</ele><time>2020-10-01T04:19:36Z</time></trkpt>
			<trkpt lat="54.875793" lon="20.761208"><ele>4.6</ele><time>2020-10-01T04:22:54Z</time></trkpt>
			<trkpt lat="54.876401" lon="20.753590"><ele>5.7</ele><time>2020-10-01T04:24:23Z</time></trkpt>
			<trkpt lat="54.876539" lon="20.751406"><ele>5.6</ele><time>2020-10-01T04:24:48Z</time></trkpt>
			<trkpt lat="54.876976" lon="20.738849"><ele>7.6</ele><time>2020-10-01T04:27:13Z</time></trkpt>
			<trkpt lat="54.877198" lon="20.736715"><ele>8.3</ele><time>2020-10-01T04:27:38Z</time></trkpt>
			<trkpt lat="54.877221" lon="20.735977"><ele>8.1</ele><time>2020-10-01T04:27:47Z</time></trkpt>
			<trkpt lat="54.877132" lon="20.731383"><ele>5.2</ele><time>2020-10-01T04:28:40Z</time></trkpt>
			<trkpt lat="54.877151" lon="20.731059"><ele>4.9</ele><time>2020-10-01T04:28:44Z</time></trkpt>
			<trkpt lat="54.878073" lon="20.723119"><ele>4.3</ele><time>2020-10-01T04:30:17Z</time></trkpt>
			<trkpt lat="54.878510" lon="20.719951"><ele>4.0</ele><time>2020-10-01T04:30:55Z</time></trkpt>
			<trkpt lat="54.879342" lon="20.713137"><ele>4.6</ele><time>2020-10-01T04:32:15Z</time></trkpt>
			<trkpt lat="54.881450" lon="20.698261"><ele>4.0</ele><time>2020-10-01T04:35:12Z</time></trkpt>
			<trkpt lat="54.881998" lon="20.694131"><ele>4.3</ele><time>2020-10-01T04:36:00Z</time></trkpt>
			<trkpt lat="54.882122" lon="20.690400"><ele>6.2</ele><time>2020-10-01T04:36:44Z</time></trkpt>
			<trkpt lat="54.882193" lon="20.689813"><ele>6.2</ele><time>2020-10-01T04:36:50Z</time></trkpt>
			<trkpt lat="54.883253" lon="20.683660"><ele>7.2</ele><time>2020-10-01T04:38:04Z</time></trkpt>
			<trkpt lat="54.883405" lon="20.675299"><ele>5.3</ele><time>2020-10-01T04:39:41Z</time></trkpt>
			<trkpt lat="54.892726" lon="20.684313"><ele>5.4</ele><time>2020-10-01T04:43:15Z</time></trkpt>
			<trkpt lat="54.893146" lon="20.684763"><ele>5.8</ele><time>2020-10-01T04:43:25Z</time></trkpt>
			<trkpt lat="54.894730" lon="20.686068"><ele>9.2</ele><time>2020-10-01T04:44:00Z</time></trkpt>
			<trkpt lat="54.896163" lon="20.686314"><ele>5.6</ele><time>2020-10-01T04:44:29Z</time></trkpt>
			<trkpt lat="54.896198" lon="20.686121"><ele>5.3</ele><time>2020-10-01T04:44:31Z</time></trkpt>
			<trkpt lat="54.899001" lon="20.681358"><ele>4.1</ele><time>2020-10-01T04:45:49Z</time></trkpt>
			<trkpt lat="54.900756" lon="20.678442"><ele>5.6</ele><time>2020-10-01T04:46:38Z</time></trkpt>
			<trkpt lat="54.901460" lon="20.677198"><ele>4.9</ele><time>2020-10-01T04:46:58Z</time></trkpt>
			<trkpt lat="54.901881" lon="20.676404"><ele>4.3</ele><time>2020-10-01T04:47:11Z</time></trkpt>
			<trkpt lat="54.902501" lon="20.675049"><ele>5.9</ele><time>2020-10-01T04:47:31Z</time></trkpt>
			<trkpt lat="54.902727" lon="20.674751"><ele>5.4</ele><time>2020-10-01T04:47:36Z</time></trkpt>
			<trkpt lat="54.903328" lon="20.674127"><ele>4.0</ele><time>2020-10-01T04:47:50Z</time></trkpt>
			<trkpt lat="54.903579" lon="20.673783"><ele>3.7</ele><time>2020-10-01T04:47:57Z</time></trkpt>
			<trkpt lat="54.903855" lon="20.673209"><ele>3.4</ele><time>2020-10-01T04:48:05Z</time></trkpt>
			<trkpt lat="54.904219" lon="20.672176"><ele>3.6</ele><time>2020-10-01T04:48:19Z</time></trkpt>
			<trkpt lat="54.904412" lon="20.671732"><ele>3.1</ele><time>2020-10-01T04:48:26Z</time></trkpt>
			<trkpt lat="54.905046" lon="20.670476"><ele>3.0</ele><time>2020-10-01T04:48:45Z</time></trkpt>
			<trkpt lat="54.905318" lon="20.670214"><ele>3.3</ele><time>2020-10-01T04:48:51Z</time></trkpt>
			<trkpt lat="54.905636" lon="20.670121"><ele>3.6</ele><time>2020-10-01T04:48:58Z</time></trkpt>
			<trkpt lat="54.905880" lon="20.670099"><ele>3.7</ele><time>2020-10-01T04:49:02Z</time></trkpt>
			<trkpt lat="54.906119" lon="20.669972"><ele>3.4</ele><time>2020-10-01T04:49:07Z</time></trkpt>
			<trkpt lat="54.906242" lon="20.669864"><ele>3.3</ele><time>2020-10-01T04:49:10Z</time></trkpt>
			<trkpt lat="54.906633" lon="20.669261"><ele>3.8</ele><time>2020-10-01T04:49:21Z</time></trkpt>
			<trkpt lat="54.906818" lon="20.668863"><ele>3.8</ele><time>2020-10-01T04:49:27Z</time></trkpt>
			<trkpt lat="54.907074" lon="20.668160"><ele>3.3</ele><time>2020-10-01T04:49:36Z</time></trkpt>
			<trkpt lat="54.907120" lon="20.667908"><ele>2.9</ele><time>2020-10-01T04:49:39Z</time></trkpt>
			<trkpt lat="54.907135" lon="20.667540"><ele>2.4</ele><time>2020-10-01T04:49:44Z</time></trkpt>
			<trkpt lat="54.906283" lon="20.655962"><ele>3.3</ele><time>2020-10-01T04:51:58Z</time></trkpt>
			<trkpt lat="54.906289" lon="20.655290"><ele>3.4</ele><time>2020-10-01T04:52:06Z</time></trkpt>
			<trkpt lat="54.906452" lon="20.654354"><ele>2.3</ele><time>2020-10-01T04:52:17Z</time></trkpt>
			<trkpt lat="54.908142" lon="20.646780"><ele>4.3</ele><time>2020-10-01T04:53:51Z</time></trkpt>
			<trkpt lat="54.908496" lon="20.643803"><ele>4.4</ele><time>2020-10-01T04:54:26Z</time></trkpt>
			<trkpt lat="54.908529" lon="20.643046"><ele>4.0</ele><time>2020-10-01T04:54:34Z</time></trkpt>
			<trkpt lat="54.908511" lon="20.642810"><ele>4.3</ele><time>2020-10-01T04:54:37Z</time></trkpt>
			<trkpt lat="54.906616" lon="20.634492"><ele>4.3</ele><time>2020-10-01T04:56:20Z</time></trkpt>
			<trkpt lat="54.906052" lon="20.629835"><ele>5.7</ele><time>2020-10-01T04:57:15Z</time></trkpt>
			<trkpt lat="54.905996" lon="20.629201"><ele>5.7</ele><time>2020-10-01T04:57:22Z</time></trkpt>
			<trkpt lat="54.906039" lon="20.628476"><ele>4.9</ele><time>2020-10-01T04:57:31Z</time></trkpt>
			<trkpt lat="54.906034" lon="20.627829"><ele>4.8</ele><time>2020-10-01T04:57:38Z</time></trkpt>
			<trkpt lat="54.905936" lon="20.627184"><ele>4.9</ele><time>2020-10-01T04:57:46Z</time></trkpt>
			<trkpt lat="54.905351" lon="20.625629"><ele>4.9</ele><time>2020-10-01T04:58:07Z</time></trkpt>
			<trkpt lat="54.903687" lon="20.621465"><ele>5.0</ele><time>2020-10-01T04:59:06Z</time></trkpt>
			<trkpt lat="54.903539" lon="20.621035"><ele>4.9</ele><time>2020-10-01T04:59:12Z</time></trkpt>
			<trkpt lat="54.903465" lon="20.620666"><ele>5.0</ele><time>2020-10-01T04:59:16Z</time></trkpt>
			<trkpt lat="54.903389" lon="20.620132"><ele>5.7</ele><time>2020-10-01T04:59:22Z</time></trkpt>
			<trkpt lat="54.903261" lon="20.617614"><ele>7.9</ele><time>2020-10-01T04:59:52Z</time></trkpt>
			<trkpt lat="54.903036" lon="20.614186"><ele>4.8</ele><time>2020-10-01T05:00:31Z</time></trkpt>
			<trkpt lat="54.902524" lon="20.609181"><ele>5.9</ele><time>2020-10-01T05:01:30Z</time></trkpt>
			<trkpt lat="54.901410" lon="20.600587"><ele>6.4</ele><time>2020-10-01T05:03:11Z</time></trkpt>
			<trkpt lat="54.900966" lon="20.598323"><ele>6.0</ele><time>2020-10-01T05:03:39Z</time></trkpt>
			<trkpt lat="54.900719" lon="20.597258"><ele>6.3</ele><time>2020-10-01T05:03:52Z</time></trkpt>
			<trkpt lat="54.900606" lon="20.596898"><ele>6.7</ele><time>2020-10-01T05:03:57Z</time></trkpt>
			<trkpt lat="54.904050" lon="20.594768"><ele>6.2</ele><time>2020-10-01T05:05:10Z</time></trkpt>
			<trkpt lat="54.906667" lon="20.593101"><ele>4.1</ele><time>2020-10-01T05:06:06Z</time></trkpt>
			<trkpt lat="54.908024" lon="20.592084"><ele>4.8</ele><time>2020-10-01T05:06:36Z</time></trkpt>
			<trkpt lat="54.908690" lon="20.591514"><ele>4.9</ele><time>2020-10-01T05:06:50Z</time></trkpt>
			<trkpt lat="54.908921" lon="20.591402"><ele>4.8</ele><time>2020-10-01T05:06:55Z</time></trkpt>
			<trkpt lat="54.909229" lon="20.591315"><ele>4.5</ele><time>2020-10-01T05:07:02Z</time></trkpt>
			<trkpt lat="54.912520" lon="20.590964"><ele>0.2</ele><time>2020-10-01T05:08:08Z</time></trkpt>
			<trkpt lat="54.912488" lon="20.590020"><ele>1.0</ele><time>2020-10-01T05:08:18Z</time></trkpt>
			<trkpt lat="54.912506" lon="20.589628"><ele>1.5</ele><time>2020-10-01T05:08:23Z</time></trkpt>
			<trkpt lat="54.912658" lon="20.589050"><ele>2.0</ele><time>2020-10-01T05:08:30Z</time></trkpt>
			<trkpt lat="54.913568" lon="20.586630"><ele>-0.7</ele><time>2020-10-01T05:09:04Z</time></trkpt>
			<trkpt lat="54.915312" lon="20.580932"><ele>1.4</ele><time>2020-10-01T05:10:18Z</time></trkpt>
			<trkpt lat="54.915576" lon="20.580305"><ele>1.3</ele><time>2020-10-01T05:10:27Z</time></trkpt>
			<trkpt lat="54.915729" lon="20.580114"><ele>1.1</ele><time>2020-10-01T05:10:31Z</time></trkpt>
			<trkpt lat="54.915880" lon="20.579990"><ele>1.1</ele><time>2020-10-01T05:10:34Z</time></trkpt>
			<trkpt lat="54.917314" lon="20.579454"><ele>2.3</ele><time>2020-10-01T05:11:03Z</time></trkpt>
			<trkpt lat="54.918411" lon="20.579200"><ele>1.0</ele><time>2020-10-01T05:11:26Z</time></trkpt>
			<trkpt lat="54.920199" lon="20.578874"><ele>1.1</ele><time>2020-10-01T05:12:02Z</time></trkpt>
			<trkpt lat="54.921439" lon="20.579030"><ele>0.8</ele><time>2020-10-01T05:12:27Z</time></trkpt>
			<trkpt lat="54.922309" lon="20.579232"><ele>1.7</ele><time>2020-10-01T05:12:44Z</time></trkpt>
			<trkpt lat="54.922881" lon="20.579470"><ele>1.2</ele><time>2020-10-01T05:12:56Z</time></trkpt>
			<trkpt lat="54.923002" lon="20.579448"><ele>1.1</ele><time>2020-10-01T05:12:58Z</time></trkpt>
			<trkpt lat="54.923230" lon="20.579261"><ele>1.0</ele><time>2020-10-01T05:13:03Z</time></trkpt>
			<trkpt lat="54.923416" lon="20.578917"><ele>0.6</ele><time>2020-10-01T05:13:09Z</time></trkpt>
			<trkpt lat="54.923507" lon="20.578324"><ele>0.0</ele><time>2020-10-01T05:13:16Z</time></trkpt>
			<trkpt lat="54.923572" lon="20.577082"><ele>0.0</ele><time>2020-10-01T05:13:30Z</time></trkpt>
			<trkpt lat="54.923572" lon="20.576246"><ele>0.0</ele><time>2020-10-01T05:13:40Z</time></trkpt>
			<trkpt lat="54.923501" lon="20.574180"><ele>0.5</ele><time>2020-10-01T05:14:04Z</time></trkpt>
			<trkpt lat="54.923581" lon="20.571324"><ele>0.3</ele><time>2020-10-01T05:14:37Z</time></trkpt>
			<trkpt lat="54.924468" lon="20.565103"><ele>-1.9</ele><time>2020-10-01T05:15:51Z</time></trkpt>
			<trkpt lat="54.924760" lon="20.564457"><ele>-2.0</ele><time>2020-10-01T05:16:00Z</time></trkpt>
			<trkpt lat="54.925011" lon="20.563759"><ele>-1.5</ele><time>2020-10-01T05:16:09Z</time></trkpt>
			<trkpt lat="54.925468" lon="20.562187"><ele>-1.7</ele><time>2020-10-01T05:16:30Z</time></trkpt>
			<trkpt lat="54.925895" lon="20.560143"><ele>-2.2</ele><time>2020-10-01T05:16:55Z</time></trkpt>
			<trkpt lat="54.926109" lon="20.556409"><ele>0.8</ele><time>2020-10-01T05:17:38Z</time></trkpt>
			<trkpt lat="54.926896" lon="20.544474"><ele>2.2</ele><time>2020-10-01T05:19:56Z</time></trkpt>
			<trkpt lat="54.926983" lon="20.544068"><ele>1.9</ele><time>2020-10-01T05:20:01Z</time></trkpt>
			<trkpt lat="54.927144" lon="20.543751"><ele>1.8</ele><time>2020-10-01T05:20:06Z</time></trkpt>
			<trkpt lat="54.930487" lon="20.540414"><ele>0.2</ele><time>2020-10-01T05:21:23Z</time></trkpt>
			<trkpt lat="54.930582" lon="20.540402"><ele>0.2</ele><time>2020-10-01T05:21:25Z</time></trkpt>
			<trkpt lat="54.934116" lon="20.541076"><ele>-0.6</ele><time>2020-10-01T05:22:37Z</time></trkpt>
			<trkpt lat="54.934455" lon="20.541103"><ele>-0.7</ele><time>2020-10-01T05:22:43Z</time></trkpt>
			<trkpt lat="54.934625" lon="20.540909"><ele>-0.9</ele><time>2020-10-01T05:22:47Z</time></trkpt>
			<trkpt lat="54.934721" lon="20.540568"><ele>-1.0</ele><time>2020-10-01T05:22:52Z</time></trkpt>
			<trkpt lat="54.934511" lon="20.535223"><ele>0.3</ele><time>2020-10-01T05:23:54Z</time></trkpt>
			<trkpt lat="54.934503" lon="20.534007"><ele>-0.1</ele><time>2020-10-01T05:24:08Z</time></trkpt>
			<trkpt lat="54.934643" lon="20.532624"><ele>-1.8</ele><time>2020-10-01T05:24:24Z</time></trkpt>
			<trkpt lat="54.934690" lon="20.532630"><ele>-1.9</ele><time>2020-10-01T05:24:24Z</time></trkpt>
			<trkpt lat="54.934860" lon="20.530580"><ele>-1.8</ele><time>2020-10-01T05:24:51Z</time></trkpt>
			<trkpt lat="54.935420" lon="20.523690"><ele>-1.4</ele><time>2020-10-01T05:25:18Z</time></trkpt>
			<trkpt lat="54.935710" lon="20.520050"><ele>-0.1</ele><time>2020-10-01T05:25:45Z</time></trkpt>
			<trkpt lat="54.935970" lon="20.516730"><ele>1.2</ele><time>2020-10-01T05:26:12Z</time></trkpt>
			<trkpt lat="54.936070" lon="20.515650"><ele>1.1</ele><time>2020-10-01T05:26:39Z</time></trkpt>
			<trkpt lat="54.936320" lon="20.512600"><ele>0.6</ele><time>2020-10-01T05:27:06Z</time></trkpt>
			<trkpt lat="54.936400" lon="20.511100"><ele>2.1</ele><time>2020-10-01T05:27:33Z</time></trkpt>
			<trkpt lat="54.936420" lon="20.510930"><ele>2.2</ele><time>2020-10-01T05:28:01Z</time></trkpt>
			<trkpt lat="54.936430" lon="20.510740"><ele>2.4</ele><time>2020-10-01T05:28:28Z</time></trkpt>
			<trkpt lat="54.936540" lon="20.509360"><ele>3.2</ele><time>2020-10-01T05:28:55Z</time></trkpt>
			<trkpt lat="54.936620" lon="20.508460"><ele>3.2</ele><time>2020-10-01T05:29:22Z</time></trkpt>
			<trkpt lat="54.936630" lon="20.508260"><ele>3.1</ele><time>2020-10-01T05:29:49Z</time></trkpt>
			<trkpt lat="54.936660" lon="20.507770"><ele>3.0</ele><time>2020-10-01T05:30:16Z</time></trkpt>
			<trkpt lat="54.936670" lon="20.507330"><ele>2.8</ele><time>2020-10-01T05:30:43Z</time></trkpt>
			<trkpt lat="54.936670" lon="20.506910"><ele>2.3</ele><time>2020-10-01T05:31:10Z</time></trkpt>
			<trkpt lat="54.936650" lon="20.506760"><ele>2.2</ele><time>2020-10-01T05:31:38Z</time></trkpt>
			<trkpt lat="54.936620" lon="20.506500"><ele>1.8</ele><time>2020-10-01T05:32:05Z</time></trkpt>
			<trkpt lat="54.936430" lon="20.505500"><ele>0.1</ele><time>2020-10-01T05:32:32Z</time></trkpt>
			<trkpt lat="54.936270" lon="20.504650"><ele>-2.1</ele><time>2020-10-01T05:32:59Z</time></trkpt>
			<trkpt lat="54.936210" lon="20.504370"><ele>-2.8</ele><time>2020-10-01T05:33:26Z</time></trkpt>
			<trkpt lat="54.936140" lon="20.503970"><ele>-3.8</ele><time>2020-10-01T05:33:53Z</time></trkpt>
			<trkpt lat="54.936110" lon="20.503820"><ele>-4.1</ele><time>2020-10-01T05:34:20Z</time></trkpt>
			<trkpt lat="54.934400" lon="20.494930"><ele>-4.7</ele><time>2020-10-01T05:34:48Z</time></trkpt>
			<trkpt lat="54.934400" lon="20.494930"><ele>-4.7</ele><time>2020-10-01T05:34:48Z</time></trkpt>
			<trkpt lat="54.934070" lon="20.493250"><ele>-3.2</ele><time>2020-10-01T05:35:06Z</time></trkpt>
			<trkpt lat="54.933390" lon="20.489830"><ele>0.0</ele><time>2020-10-01T05:35:25Z</time></trkpt>
			<trkpt lat="54.933290" lon="20.489260"><ele>0.1</ele><time>2020-10-01T05:35:44Z</time></trkpt>
			<trkpt lat="54.933010" lon="20.487680"><ele>1.8</ele><time>2020-10-01T05:36:03Z</time></trkpt>
			<trkpt lat="54.932790" lon="20.486550"><ele>3.1</ele><time>2020-10-01T05:36:22Z</time></trkpt>
			<trkpt lat="54.931960" lon="20.482370"><ele>4.2</ele><time>2020-10-01T05:36:41Z</time></trkpt>
			<trkpt lat="54.931900" lon="20.481340"><ele>4.1</ele><time>2020-10-01T05:37:00Z</time></trkpt>
			<trkpt lat="54.931920" lon="20.480430"><ele>5.3</ele><time>2020-10-01T05:37:19Z</time></trkpt>
			<trkpt lat="54.932040" lon="20.479630"><ele>6.9</ele><time>2020-10-01T05:37:38Z</time></trkpt>
			<trkpt lat="54.932190" lon="20.478850"><ele>8.0</ele><time>2020-10-01T05:37:57Z</time></trkpt>
			<trkpt lat="54.932400" lon="20.478250"><ele>9.2</ele><time>2020-10-01T05:38:16Z</time></trkpt>
			<trkpt lat="54.932630" lon="20.477690"><ele>11.0</ele><time>2020-10-01T05:38:34Z</time></trkpt>
			<trkpt lat="54.932930" lon="20.477200"><ele>12.0</ele><time>2020-10-01T05:38:53Z</time></trkpt>
			<trkpt lat="54.933280" lon="20.476760"><ele>12.8</ele><time>2020-10-01T05:39:12Z</time></trkpt>
			<trkpt lat="54.933360" lon="20.476680"><ele>12.7</ele><time>2020-10-01T05:39:31Z</time></trkpt>
			<trkpt lat="54.934610" lon="20.475930"><ele>7.0</ele><time>2020-10-01T05:39:50Z</time></trkpt>
			<trkpt lat="54.937730" lon="20.474470"><ele>5.0</ele><time>2020-10-01T05:40:09Z</time></trkpt>
			<trkpt lat="54.941720" lon="20.472420"><ele>-1.9</ele><time>2020-10-01T05:40:28Z</time></trkpt>
			<trkpt lat="54.942300" lon="20.472130"><ele>-2.2</ele><time>2020-10-01T05:40:47Z</time></trkpt>
			<trkpt lat="54.942510" lon="20.472030"><ele>-2.5</ele><time>2020-10-01T05:41:06Z</time></trkpt>
			<trkpt lat="54.943040" lon="20.471760"><ele>-2.2</ele><time>2020-10-01T05:41:25Z</time></trkpt>
			<trkpt lat="54.943270" lon="20.471650"><ele>-2.1</ele><time>2020-10-01T05:41:44Z</time></trkpt>
			<trkpt lat="54.943410" lon="20.471580"><ele>-1.8</ele><time>2020-10-01T05:42:02Z</time></trkpt>
			<trkpt lat="54.944120" lon="20.471220"><ele>-0.1</ele><time>2020-10-01T05:42:21Z</time></trkpt>
			<trkpt lat="54.944660" lon="20.470900"><ele>0.0</ele><time>2020-10-01T05:42:40Z</time></trkpt>
			<trkpt lat="54.944870" lon="20.470780"><ele>0.1</ele><time>2020-10-01T05:42:59Z</time></trkpt>
			<trkpt lat="54.945030" lon="20.470520"><ele>0.4</ele><time>2020-10-01T05:43:18Z</time></trkpt>
			<trkpt lat="54.945140" lon="20.470230"><ele>0.9</ele><time>2020-10-01T05:43:37Z</time></trkpt>
			<trkpt lat="54.945240" lon="20.469680"><ele>1.0</ele><time>2020-10-01T05:43:56Z</time></trkpt>
			<trkpt lat="54.945410" lon="20.468550"><ele>0.6</ele><time>2020-10-01T05:44:15Z</time></trkpt>
			<trkpt lat="54.945580" lon="20.467580"><ele>-0.2</ele><time>2020-10-01T05:44:34Z</time></trkpt>
			<trkpt lat="54.945230" lon="20.467270"><ele>-0.9</ele><time>2020-10-01T05:44:53Z</time></trkpt>
			<trkpt lat="54.944680" lon="20.466890"><ele>-1.1</ele><time>2020-10-01T05:45:12Z</time></trkpt>
			<trkpt lat="54.944349" lon="20.466574"><ele>-1.1</ele><time>2020-10-01T05:45:19Z</time></trkpt>
			<trkpt lat="54.944048" lon="20.466107"><ele>-1.6</ele><time>2020-10-01T05:45:27Z</time></trkpt>
			<trkpt lat="54.943473" lon="20.464343"><ele>0.8</ele><time>2020-10-01T05:45:51Z</time></trkpt>
			<trkpt lat="54.942723" lon="20.462243"><ele>1.9</ele><time>2020-10-01T05:46:19Z</time></trkpt>
			<trkpt lat="54.938890" lon="20.451056"><ele>4.2</ele><time>2020-10-01T05:48:49Z</time></trkpt>
			<trkpt lat="54.938741" lon="20.450711"><ele>4.4</ele><time>2020-10-01T05:48:54Z</time></trkpt>
			<trkpt lat="54.937934" lon="20.448276"><ele>2.5</ele><time>2020-10-01T05:49:26Z</time></trkpt>
			<trkpt lat="54.934156" lon="20.437355"><ele>-1.0</ele><time>2020-10-01T05:51:53Z</time></trkpt>
			<trkpt lat="54.933567" lon="20.435759"><ele>-1.3</ele><time>2020-10-01T05:52:15Z</time></trkpt>
			<trkpt lat="54.929141" lon="20.422939"><ele>0.5</ele><time>2020-10-01T05:55:07Z</time></trkpt>
			<trkpt lat="54.929046" lon="20.422568"><ele>0.2</ele><time>2020-10-01T05:55:12Z</time></trkpt>
			<trkpt lat="54.928942" lon="20.421709"><ele>0.0</ele><time>2020-10-01T05:55:22Z</time></trkpt>
			<trkpt lat="54.928980" lon="20.419056"><ele>2.4</ele><time>2020-10-01T05:55:53Z</time></trkpt>
			<trkpt lat="54.929303" lon="20.408303"><ele>1.0</ele><time>2020-10-01T05:57:56Z</time></trkpt>
			<trkpt lat="54.929348" lon="20.405716"><ele>-0.3</ele><time>2020-10-01T05:58:26Z</time></trkpt>
			<trkpt lat="54.929277" lon="20.405096"><ele>0.9</ele><time>2020-10-01T05:58:34Z</time></trkpt>
			<trkpt lat="54.928787" lon="20.402182"><ele>1.2</ele><time>2020-10-01T05:59:09Z</time></trkpt>
			<trkpt lat="54.928566" lon="20.401257"><ele>1.4</ele><time>2020-10-01T05:59:20Z</time></trkpt>
			<trkpt lat="54.928325" lon="20.400575"><ele>0.7</ele><time>2020-10-01T05:59:29Z</time></trkpt>
			<trkpt lat="54.928072" lon="20.400010"><ele>0.0</ele><time>2020-10-01T05:59:38Z</time></trkpt>
			<trkpt lat="54.927881" lon="20.399665"><ele>0.0</ele><time>2020-10-01T05:59:43Z</time></trkpt>
			<trkpt lat="54.927467" lon="20.399047"><ele>0.3</ele><time>2020-10-01T05:59:54Z</time></trkpt>
			<trkpt lat="54.927127" lon="20.398676"><ele>1.1</ele><time>2020-10-01T06:00:02Z</time></trkpt>
			<trkpt lat="54.926784" lon="20.398386"><ele>1.1</ele><time>2020-10-01T06:00:10Z</time></trkpt>
			<trkpt lat="54.926456" lon="20.398160"><ele>0.9</ele><time>2020-10-01T06:00:17Z</time></trkpt>
			<trkpt lat="54.925903" lon="20.397949"><ele>0.5</ele><time>2020-10-01T06:00:28Z</time></trkpt>
			<trkpt lat="54.925340" lon="20.397894"><ele>-0.4</ele><time>2020-10-01T06:00:39Z</time></trkpt>
			<trkpt lat="54.920189" lon="20.398943"><ele>4.3</ele><time>2020-10-01T06:02:23Z</time></trkpt>
			<trkpt lat="54.917284" lon="20.399748"><ele>4.7</ele><time>2020-10-01T06:03:22Z</time></trkpt>
			<trkpt lat="54.910948" lon="20.401601"><ele>4.1</ele><time>2020-10-01T06:05:31Z</time></trkpt>
			<trkpt lat="54.909312" lon="20.402017"><ele>6.7</ele><time>2020-10-01T06:06:04Z</time></trkpt>
			<trkpt lat="54.908848" lon="20.394059"><ele>7.0</ele><time>2020-10-01T06:07:36Z</time></trkpt>
			<trkpt lat="54.907142" lon="20.382812"><ele>16.2</ele><time>2020-10-01T06:09:50Z</time></trkpt>
			<trkpt lat="54.906602" lon="20.379440"><ele>17.1</ele><time>2020-10-01T06:10:31Z</time></trkpt>
			<trkpt lat="54.906562" lon="20.378821"><ele>15.4</ele><time>2020-10-01T06:10:38Z</time></trkpt>
			<trkpt lat="54.906467" lon="20.375450"><ele>11.9</ele><time>2020-10-01T06:11:17Z</time></trkpt>
			<trkpt lat="54.906446" lon="20.372099"><ele>14.5</ele><time>2020-10-01T06:11:55Z</time></trkpt>
			<trkpt lat="54.906511" lon="20.371425"><ele>13.8</ele><time>2020-10-01T06:12:03Z</time></trkpt>
			<trkpt lat="54.907260" lon="20.366573"><ele>12.2</ele><time>2020-10-01T06:13:01Z</time></trkpt>
			<trkpt lat="54.907166" lon="20.360665"><ele>12.3</ele><time>2020-10-01T06:14:09Z</time></trkpt>
			<trkpt lat="54.906956" lon="20.352727"><ele>15.1</ele><time>2020-10-01T06:15:41Z</time></trkpt>
			<trkpt lat="54.906864" lon="20.351887"><ele>17.0</ele><time>2020-10-01T06:15:50Z</time></trkpt>
			<trkpt lat="54.905678" lon="20.346268"><ele>16.8</ele><time>2020-10-01T06:16:59Z</time></trkpt>
			<trkpt lat="54.905394" lon="20.344000"><ele>15.4</ele><time>2020-10-01T06:17:26Z</time></trkpt>
			<trkpt lat="54.902342" lon="20.315096"><ele>27.4</ele><time>2020-10-01T06:23:05Z</time></trkpt>
			<trkpt lat="54.901230" lon="20.303230"><ele>42.1</ele><time>2020-10-01T06:25:23Z</time></trkpt>
			<trkpt lat="54.900376" lon="20.295170"><ele>44.6</ele><time>2020-10-01T06:26:58Z</time></trkpt>
			<trkpt lat="54.899695" lon="20.288143"><ele>42.5</ele><time>2020-10-01T06:28:20Z</time></trkpt>
			<trkpt lat="54.899502" lon="20.287160"><ele>41.8</ele><time>2020-10-01T06:28:32Z</time></trkpt>
			<trkpt lat="54.897193" lon="20.280176"><ele>30.8</ele><time>2020-10-01T06:30:12Z</time></trkpt>
			<trkpt lat="54.897190" lon="20.280180"><ele>30.8</ele><time>2020-10-01T06:30:12Z</time></trkpt>
			<trkpt lat="54.897190" lon="20.280180"><ele>30.8</ele><time>2020-10-01T06:30:17Z</time></trkpt>
			<trkpt lat="54.896680" lon="20.278680"><ele>26.8</ele><time>2020-10-01T06:30:23Z</time></trkpt>
			<trkpt lat="54.896630" lon="20.278510"><ele>26.6</ele><time>2020-10-01T06:30:29Z</time></trkpt>
			<trkpt lat="54.896610" lon="20.278360"><ele>26.4</ele><time>2020-10-01T06:30:34Z</time></trkpt>
			<trkpt lat="54.896610" lon="20.278130"><ele>26.2</ele><time>2020-10-01T06:30:40Z</time></trkpt>
			<trkpt lat="54.896640" lon="20.277870"><ele>26.1</ele><time>2020-10-01T06:30:46Z</time></trkpt>
			<trkpt lat="54.896740" lon="20.277130"><ele>26.8</ele><time>2020-10-01T06:30:52Z</time></trkpt>
			<trkpt lat="54.896740" lon="20.277130"><ele>26.8</ele><time>2020-10-01T06:30:52Z</time></trkpt>
			<trkpt lat="54.896790" lon="20.276700"><ele>27.9</ele><time>2020-10-01T06:30:53Z</time></trkpt>
			<trkpt lat="54.896780" lon="20.276590"><ele>28.4</ele><time>2020-10-01T06:30:55Z</time></trkpt>
			<trkpt lat="54.896750" lon="20.276510"><ele>28.9</ele><time>2020-10-01T06:30:56Z</time></trkpt>
			<trkpt lat="54.896670" lon="20.276420"><ele>29.5</ele><time>2020-10-01T06:30:58Z</time></trkpt>
			<trkpt lat="54.896700" lon="20.276400"><ele>29.4</ele><time>2020-10-01T06:31:00Z</time></trkpt>
			<trkpt lat="54.896700" lon="20.276400"><ele>29.4</ele><time>2020-10-01T06:31:00Z</time></trkpt>
			<trkpt lat="54.896790" lon="20.276360"><ele>28.9</ele><time>2020-10-01T06:31:01Z</time></trkpt>
			<trkpt lat="54.896910" lon="20.276330"><ele>28.0</ele><time>2020-10-01T06:31:02Z</time></trkpt>
			<trkpt lat="54.897000" lon="20.276350"><ele>27.2</ele><time>2020-10-01T06:31:03Z</time></trkpt>
			<trkpt lat="54.897060" lon="20.276380"><ele>26.6</ele><time>2020-10-01T06:31:05Z</time></trkpt>
			<trkpt lat="54.897388" lon="20.276548"><ele>23.2</ele><time>2020-10-01T06:31:12Z</time></trkpt>
			<trkpt lat="54.897673" lon="20.276679"><ele>21.4</ele><time>2020-10-01T06:31:18Z</time></trkpt>
			<trkpt lat="54.897870" lon="20.276708"><ele>20.8</ele><time>2020-10-01T06:31:22Z</time></trkpt>
			<trkpt lat="54.899651" lon="20.276679"><ele>20.6</ele><time>2020-10-01T06:31:57Z</time></trkpt>
			<trkpt lat="54.899869" lon="20.276554"><ele>20.5</ele><time>2020-10-01T06:32:02Z</time></trkpt>
			<trkpt lat="54.900408" lon="20.276088"><ele>19.8</ele><time>2020-10-01T06:32:14Z</time></trkpt>
			<trkpt lat="54.901201" lon="20.275063"><ele>23.8</ele><time>2020-10-01T06:32:34Z</time></trkpt>
			<trkpt lat="54.901408" lon="20.274853"><ele>24.2</ele><time>2020-10-01T06:32:39Z</time></trkpt>
			<trkpt lat="54.901560" lon="20.274783"><ele>24.4</ele><time>2020-10-01T06:32:42Z</time></trkpt>
			<trkpt lat="54.903923" lon="20.274411"><ele>37.6</ele><time>2020-10-01T06:33:29Z</time></trkpt>
			<trkpt lat="54.904191" lon="20.274338"><ele>38.3</ele><time>2020-10-01T06:33:35Z</time></trkpt>
			<trkpt lat="54.909882" lon="20.271161"><ele>40.3</ele><time>2020-10-01T06:35:34Z</time></trkpt>
			<trkpt lat="54.912513" lon="20.269643"><ele>43.0</ele><time>2020-10-01T06:36:30Z</time></trkpt>
			<trkpt lat="54.915457" lon="20.267814"><ele>41.0</ele><time>2020-10-01T06:37:33Z</time></trkpt>
			<trkpt lat="54.915754" lon="20.267526"><ele>40.1</ele><time>2020-10-01T06:37:39Z</time></trkpt>
			<trkpt lat="54.916757" lon="20.266754"><ele>40.8</ele><time>2020-10-01T06:38:01Z</time></trkpt>
			<trkpt lat="54.917500" lon="20.266220"><ele>46.8</ele><time>2020-10-01T06:38:18Z</time></trkpt>
			<trkpt lat="54.918578" lon="20.265552"><ele>43.9</ele><time>2020-10-01T06:38:41Z</time></trkpt>
			<trkpt lat="54.921436" lon="20.264197"><ele>33.5</ele><time>2020-10-01T06:39:40Z</time></trkpt>
			<trkpt lat="54.921718" lon="20.264169"><ele>33.0</ele><time>2020-10-01T06:39:46Z</time></trkpt>
			<trkpt lat="54.921861" lon="20.264253"><ele>32.8</ele><time>2020-10-01T06:39:49Z</time></trkpt>
			<trkpt lat="54.922026" lon="20.264443"><ele>32.6</ele><time>2020-10-01T06:39:53Z</time></trkpt>
			<trkpt lat="54.922106" lon="20.264639"><ele>32.5</ele><time>2020-10-01T06:39:55Z</time></trkpt>
			<trkpt lat="54.922048" lon="20.266019"><ele>33.0</ele><time>2020-10-01T06:40:11Z</time></trkpt>
			<trkpt lat="54.921939" lon="20.267433"><ele>33.7</ele><time>2020-10-01T06:40:28Z</time></trkpt>
			<trkpt lat="54.921818" lon="20.268009"><ele>34.7</ele><time>2020-10-01T06:40:35Z</time></trkpt>
			<trkpt lat="54.921507" lon="20.268887"><ele>36.0</ele><time>2020-10-01T06:40:47Z</time></trkpt>
			<trkpt lat="54.921302" lon="20.269232"><ele>36.0</ele><time>2020-10-01T06:40:52Z</time></trkpt>
			<trkpt lat="54.920873" lon="20.269787"><ele>33.7</ele><time>2020-10-01T06:41:03Z</time></trkpt>
			<trkpt lat="54.920608" lon="20.270022"><ele>33.0</ele><time>2020-10-01T06:41:09Z</time></trkpt>
			<trkpt lat="54.920497" lon="20.270082"><ele>32.9</ele><time>2020-10-01T06:41:11Z</time></trkpt>
			<trkpt lat="54.920378" lon="20.270050"><ele>33.0</ele><time>2020-10-01T06:41:14Z</time></trkpt>
			<trkpt lat="54.920286" lon="20.269933"><ele>33.2</ele><time>2020-10-01T06:41:16Z</time></trkpt>
			<trkpt lat="54.920229" lon="20.269609"><ele>33.9</ele><time>2020-10-01T06:41:20Z</time></trkpt>
			<trkpt lat="54.920166" lon="20.268869"><ele>35.3</ele><time>2020-10-01T06:41:29Z</time></trkpt>
			<trkpt lat="54.919561" lon="20.254684"><ele>39.4</ele><time>2020-10-01T06:44:12Z</time></trkpt>
			<trkpt lat="54.919385" lon="20.251771"><ele>37.2</ele><time>2020-10-01T06:44:46Z</time></trkpt>
			<trkpt lat="54.919202" lon="20.249736"><ele>35.1</ele><time>2020-10-01T06:45:10Z</time></trkpt>
			<trkpt lat="54.918989" lon="20.247978"><ele>37.0</ele><time>2020-10-01T06:45:30Z</time></trkpt>
			<trkpt lat="54.918773" lon="20.246388"><ele>37.3</ele><time>2020-10-01T06:45:49Z</time></trkpt>
			<trkpt lat="54.918252" lon="20.243298"><ele>38.1</ele><time>2020-10-01T06:46:26Z</time></trkpt>
			<trkpt lat="54.917490" lon="20.239771"><ele>40.7</ele><time>2020-10-01T06:47:10Z</time></trkpt>
			<trkpt lat="54.916554" lon="20.236380"><ele>42.6</ele><time>2020-10-01T06:47:53Z</time></trkpt>
			<trkpt lat="54.916026" lon="20.234629"><ele>43.0</ele><time>2020-10-01T06:48:16Z</time></trkpt>
			<trkpt lat="54.914949" lon="20.231626"><ele>42.1</ele><time>2020-10-01T06:48:57Z</time></trkpt>
			<trkpt lat="54.914250" lon="20.229867"><ele>44.7</ele><time>2020-10-01T06:49:21Z</time></trkpt>
			<trkpt lat="54.913190" lon="20.227345"><ele>43.1</ele><time>2020-10-01T06:49:57Z</time></trkpt>
			<trkpt lat="54.912492" lon="20.225526"><ele>43.6</ele><time>2020-10-01T06:50:22Z</time></trkpt>
			<trkpt lat="54.911702" lon="20.223239"><ele>44.1</ele><time>2020-10-01T06:50:53Z</time></trkpt>
			<trkpt lat="54.911457" lon="20.222437"><ele>44.8</ele><time>2020-10-01T06:51:04Z</time></trkpt>
			<trkpt lat="54.910706" lon="20.219792"><ele>43.3</ele><time>2020-10-01T06:51:38Z</time></trkpt>
			<trkpt lat="54.910397" lon="20.218577"><ele>43.1</ele><time>2020-10-01T06:51:53Z</time></trkpt>
			<trkpt lat="54.909777" lon="20.215833"><ele>45.5</ele><time>2020-10-01T06:52:27Z</time></trkpt>
			<trkpt lat="54.909401" lon="20.213774"><ele>46.6</ele><time>2020-10-01T06:52:52Z</time></trkpt>
			<trkpt lat="54.908930" lon="20.210746"><ele>48.1</ele><time>2020-10-01T06:53:28Z</time></trkpt>
			<trkpt lat="54.908714" lon="20.208828"><ele>48.8</ele><time>2020-10-01T06:53:50Z</time></trkpt>
			<trkpt lat="54.908412" lon="20.204910"><ele>46.9</ele><time>2020-10-01T06:54:36Z</time></trkpt>
			<trkpt lat="54.908417" lon="20.203718"><ele>45.0</ele><time>2020-10-01T06:54:50Z</time></trkpt>
			<trkpt lat="54.908547" lon="20.203081"><ele>44.0</ele><time>2020-10-01T06:54:57Z</time></trkpt>
			<trkpt lat="54.908668" lon="20.202715"><ele>43.7</ele><time>2020-10-01T06:55:02Z</time></trkpt>
			<trkpt lat="54.908978" lon="20.202096"><ele>43.0</ele><time>2020-10-01T06:55:12Z</time></trkpt>
			<trkpt lat="54.909565" lon="20.201172"><ele>42.2</ele><time>2020-10-01T06:55:28Z</time></trkpt>
			<trkpt lat="54.909906" lon="20.200718"><ele>42.6</ele><time>2020-10-01T06:55:36Z</time></trkpt>
			<trkpt lat="54.910155" lon="20.200483"><ele>42.8</ele><time>2020-10-01T06:55:42Z</time></trkpt>
			<trkpt lat="54.910386" lon="20.200353"><ele>42.9</ele><time>2020-10-01T06:55:47Z</time></trkpt>
			<trkpt lat="54.911033" lon="20.200227"><ele>43.3</ele><time>2020-10-01T06:56:00Z</time></trkpt>
			<trkpt lat="54.911761" lon="20.200352"><ele>43.9</ele><time>2020-10-01T06:56:15Z</time></trkpt>
			<trkpt lat="54.912202" lon="20.200395"><ele>44.3</ele><time>2020-10-01T06:56:23Z</time></trkpt>
			<trkpt lat="54.912613" lon="20.200395"><ele>44.5</ele><time>2020-10-01T06:56:32Z</time></trkpt>
			<trkpt lat="54.913134" lon="20.200257"><ele>44.3</ele><time>2020-10-01T06:56:42Z</time></trkpt>
			<trkpt lat="54.913616" lon="20.199931"><ele>43.8</ele><time>2020-10-01T06:56:53Z</time></trkpt>
			<trkpt lat="54.913946" lon="20.199576"><ele>43.0</ele><time>2020-10-01T06:57:00Z</time></trkpt>
			<trkpt lat="54.914210" lon="20.199207"><ele>42.2</ele><time>2020-10-01T06:57:07Z</time></trkpt>
			<trkpt lat="54.914479" lon="20.198724"><ele>41.3</ele><time>2020-10-01T06:57:15Z</time></trkpt>
			<trkpt lat="54.914731" lon="20.198137"><ele>40.5</ele><time>2020-10-01T06:57:23Z</time></trkpt>
			<trkpt lat="54.916811" lon="20.192174"><ele>40.2</ele><time>2020-10-01T06:58:44Z</time></trkpt>
			<trkpt lat="54.917813" lon="20.189936"><ele>41.5</ele><time>2020-10-01T06:59:16Z</time></trkpt>
			<trkpt lat="54.918689" lon="20.187627"><ele>39.9</ele><time>2020-10-01T06:59:48Z</time></trkpt>
			<trkpt lat="54.919676" lon="20.184636"><ele>43.5</ele><time>2020-10-01T07:00:28Z</time></trkpt>
			<trkpt lat="54.920157" lon="20.183565"><ele>45.1</ele><time>2020-10-01T07:00:44Z</time></trkpt>
			<trkpt lat="54.920798" lon="20.181839"><ele>48.9</ele><time>2020-10-01T07:01:07Z</time></trkpt>
			<trkpt lat="54.921524" lon="20.180116"><ele>49.8</ele><time>2020-10-01T07:01:32Z</time></trkpt>
			<trkpt lat="54.922063" lon="20.179165"><ele>50.1</ele><time>2020-10-01T07:01:47Z</time></trkpt>
			<trkpt lat="54.922613" lon="20.178342"><ele>50.8</ele><time>2020-10-01T07:02:02Z</time></trkpt>
			<trkpt lat="54.923985" lon="20.176531"><ele>51.4</ele><time>2020-10-01T07:02:36Z</time></trkpt>
			<trkpt lat="54.924451" lon="20.176046"><ele>52.0</ele><time>2020-10-01T07:02:47Z</time></trkpt>
			<trkpt lat="54.927610" lon="20.172146"><ele>44.1</ele><time>2020-10-01T07:04:05Z</time></trkpt>
			<trkpt lat="54.927857" lon="20.171774"><ele>43.7</ele><time>2020-10-01T07:04:11Z</time></trkpt>
			<trkpt lat="54.928171" lon="20.171164"><ele>43.2</ele><time>2020-10-01T07:04:21Z</time></trkpt>
			<trkpt lat="54.929204" lon="20.168552"><ele>46.1</ele><time>2020-10-01T07:04:57Z</time></trkpt>
			<trkpt lat="54.929340" lon="20.168416"><ele>46.3</ele><time>2020-10-01T07:05:00Z</time></trkpt>
			<trkpt lat="54.929472" lon="20.168398"><ele>46.1</ele><time>2020-10-01T07:05:03Z</time></trkpt>
			<trkpt lat="54.929581" lon="20.168281"><ele>46.3</ele><time>2020-10-01T07:05:06Z</time></trkpt>
			<trkpt lat="54.929638" lon="20.168129"><ele>46.7</ele><time>2020-10-01T07:05:08Z</time></trkpt>
			<trkpt lat="54.929628" lon="20.167763"><ele>47.9</ele><time>2020-10-01T07:05:12Z</time></trkpt>
			<trkpt lat="54.929536" lon="20.167617"><ele>48.6</ele><time>2020-10-01T07:05:14Z</time></trkpt>
			<trkpt lat="54.929487" lon="20.167582"><ele>48.7</ele><time>2020-10-01T07:05:15Z</time></trkpt>
			<trkpt lat="54.929337" lon="20.167588"><ele>48.8</ele><time>2020-10-01T07:05:18Z</time></trkpt>
			<trkpt lat="54.929277" lon="20.167635"><ele>48.9</ele><time>2020-10-01T07:05:20Z</time></trkpt>
			<trkpt lat="54.929133" lon="20.167171"><ele>50.2</ele><time>2020-10-01T07:05:26Z</time></trkpt>
			<trkpt lat="54.929014" lon="20.166554"><ele>52.6</ele><time>2020-10-01T07:05:33Z</time></trkpt>
			<trkpt lat="54.929114" lon="20.162691"><ele>58.1</ele><time>2020-10-01T07:06:18Z</time></trkpt>
			<trkpt lat="54.929196" lon="20.162092"><ele>57.8</ele><time>2020-10-01T07:06:25Z</time></trkpt>
			<trkpt lat="54.929728" lon="20.160154"><ele>52.1</ele><time>2020-10-01T07:06:50Z</time></trkpt>
			<trkpt lat="54.930012" lon="20.158155"><ele>54.2</ele><time>2020-10-01T07:07:13Z</time></trkpt>
			<trkpt lat="54.930317" lon="20.154531"><ele>61.0</ele><time>2020-10-01T07:07:56Z</time></trkpt>
			<trkpt lat="54.930349" lon="20.153734"><ele>63.6</ele><time>2020-10-01T07:08:05Z</time></trkpt>
			<trkpt lat="54.930265" lon="20.149470"><ele>62.7</ele><time>2020-10-01T07:08:54Z</time></trkpt>
			<trkpt lat="54.930681" lon="20.144239"><ele>51.3</ele><time>2020-10-01T07:09:55Z</time></trkpt>
			<trkpt lat="54.930600" lon="20.143243"><ele>44.1</ele><time>2020-10-01T07:10:06Z</time></trkpt>
			<trkpt lat="54.930406" lon="20.142580"><ele>41.3</ele><time>2020-10-01T07:10:15Z</time></trkpt>
			<trkpt lat="54.930222" lon="20.142111"><ele>40.3</ele><time>2020-10-01T07:10:21Z</time></trkpt>
			<trkpt lat="54.930185" lon="20.137590"><ele>22.2</ele><time>2020-10-01T07:11:13Z</time></trkpt>
			<trkpt lat="54.930129" lon="20.137268"><ele>23.6</ele><time>2020-10-01T07:11:17Z</time></trkpt>
			<trkpt lat="54.930274" lon="20.137282"><ele>24.5</ele><time>2020-10-01T07:11:20Z</time></trkpt>
			<trkpt lat="54.930448" lon="20.137206"><ele>25.1</ele><time>2020-10-01T07:11:24Z</time></trkpt>
			<trkpt lat="54.930811" lon="20.137154"><ele>26.1</ele><time>2020-10-01T07:11:31Z</time></trkpt>
			<trkpt lat="54.931068" lon="20.137249"><ele>26.6</ele><time>2020-10-01T07:11:36Z</time></trkpt>
			<trkpt lat="54.931676" lon="20.137567"><ele>26.7</ele><time>2020-10-01T07:11:49Z</time></trkpt>
			<trkpt lat="54.932225" lon="20.138125"><ele>27.0</ele><time>2020-10-01T07:12:02Z</time></trkpt>
			<trkpt lat="54.932673" lon="20.138525"><ele>27.0</ele><time>2020-10-01T07:12:12Z</time></trkpt>
			<trkpt lat="54.933536" lon="20.139515"><ele>26.0</ele><time>2020-10-01T07:12:33Z</time></trkpt>
			<trkpt lat="54.934130" lon="20.140078"><ele>24.6</ele><time>2020-10-01T07:12:46Z</time></trkpt>
			<trkpt lat="54.935249" lon="20.140880"><ele>21.4</ele><time>2020-10-01T07:13:10Z</time></trkpt>
			<trkpt lat="54.935438" lon="20.141261"><ele>21.5</ele><time>2020-10-01T07:13:16Z</time></trkpt>
			<trkpt lat="54.935558" lon="20.141690"><ele>21.5</ele><time>2020-10-01T07:13:22Z</time></trkpt>
			<trkpt lat="54.936647" lon="20.142715"><ele>20.8</ele><time>2020-10-01T07:13:47Z</time></trkpt>
			<trkpt lat="54.937106" lon="20.143202"><ele>20.9</ele><time>2020-10-01T07:13:57Z</time></trkpt>
			<trkpt lat="54.937927" lon="20.143815"><ele>20.7</ele><time>2020-10-01T07:14:15Z</time></trkpt>
			<trkpt lat="54.938060" lon="20.143970"><ele>20.6</ele><time>2020-10-01T07:14:18Z</time></trkpt>
			<trkpt lat="54.938289" lon="20.144372"><ele>20.0</ele><time>2020-10-01T07:14:25Z</time></trkpt>
			<trkpt lat="54.938531" lon="20.145034"><ele>19.8</ele><time>2020-10-01T07:14:34Z</time></trkpt>
			<trkpt lat="54.939079" lon="20.146020"><ele>20.2</ele><time>2020-10-01T07:14:50Z</time></trkpt>
			<trkpt lat="54.939171" lon="20.146322"><ele>20.4</ele><time>2020-10-01T07:14:54Z</time></trkpt>
			<trkpt lat="54.939247" lon="20.147096"><ele>21.6</ele><time>2020-10-01T07:15:03Z</time></trkpt>
			<trkpt lat="54.939288" lon="20.147255"><ele>22.2</ele><time>2020-10-01T07:15:05Z</time></trkpt>
			<trkpt lat="54.939390" lon="20.147470"><ele>23.2</ele><time>2020-10-01T07:15:08Z</time></trkpt>
			<trkpt lat="54.939428" lon="20.147514"><ele>23.5</ele><time>2020-10-01T07:15:09Z</time></trkpt>
			<trkpt lat="54.939519" lon="20.147540"><ele>23.6</ele><time>2020-10-01T07:15:11Z</time></trkpt>
			<trkpt lat="54.939500" lon="20.147969"><ele>22.8</ele><time>2020-10-01T07:15:16Z</time></trkpt>
			<trkpt lat="54.939540" lon="20.149289"><ele>20.6</ele><time>2020-10-01T07:15:31Z</time></trkpt>
			<trkpt lat="54.939344" lon="20.150956"><ele>25.2</ele><time>2020-10-01T07:15:51Z</time></trkpt>
			<trkpt lat="54.939237" lon="20.151259"><ele>26.2</ele><time>2020-10-01T07:15:55Z</time></trkpt>
			<trkpt lat="54.938509" lon="20.152532"><ele>24.7</ele><time>2020-10-01T07:16:15Z</time></trkpt>
			<trkpt lat="54.938383" lon="20.152976"><ele>23.1</ele><time>2020-10-01T07:16:21Z</time></trkpt>
			<trkpt lat="54.938280" lon="20.153683"><ele>23.0</ele><time>2020-10-01T07:16:29Z</time></trkpt>
			<trkpt lat="54.938077" lon="20.155637"><ele>22.9</ele><time>2020-10-01T07:16:52Z</time></trkpt>
			<trkpt lat="54.938323" lon="20.158940"><ele>16.7</ele><time>2020-10-01T07:17:31Z</time></trkpt>
			<trkpt lat="54.938466" lon="20.158935"><ele>17.6</ele><time>2020-10-01T07:17:34Z</time></trkpt>
			<trkpt lat="54.938608" lon="20.158740"><ele>19.7</ele><time>2020-10-01T07:17:37Z</time></trkpt>
			<trkpt lat="54.938666" lon="20.158718"><ele>20.3</ele><time>2020-10-01T07:17:38Z</time></trkpt>
			<trkpt lat="54.938732" lon="20.158743"><ele>21.0</ele><time>2020-10-01T07:17:40Z</time></trkpt>
			<trkpt lat="54.938891" lon="20.158889"><ele>21.8</ele><time>2020-10-01T07:17:43Z</time></trkpt>
			<trkpt lat="54.939138" lon="20.159879"><ele>21.2</ele><time>2020-10-01T07:17:56Z</time></trkpt>
			<trkpt lat="54.939351" lon="20.161034"><ele>22.0</ele><time>2020-10-01T07:18:10Z</time></trkpt>
			<trkpt lat="54.939905" lon="20.164786"><ele>22.4</ele><time>2020-10-01T07:18:54Z</time></trkpt>
			<trkpt lat="54.940040" lon="20.165078"><ele>22.1</ele><time>2020-10-01T07:18:59Z</time></trkpt>
			<trkpt lat="54.940453" lon="20.165828"><ele>22.0</ele><time>2020-10-01T07:19:11Z</time></trkpt>
			<trkpt lat="54.942851" lon="20.168092"><ele>20.8</ele><time>2020-10-01T07:20:05Z</time></trkpt>
			<trkpt lat="54.942835" lon="20.167787"><ele>23.8</ele><time>2020-10-01T07:20:09Z</time></trkpt>
			<trkpt lat="54.942690" lon="20.166748"><ele>35.5</ele><time>2020-10-01T07:20:21Z</time></trkpt>
			<trkpt lat="54.942680" lon="20.166392"><ele>38.5</ele><time>2020-10-01T07:20:25Z</time></trkpt>
			<trkpt lat="54.943516" lon="20.162967"><ele>45.7</ele><time>2020-10-01T07:21:08Z</time></trkpt>
			<trkpt lat="54.944139" lon="20.158908"><ele>45.8</ele><time>2020-10-01T07:21:56Z</time></trkpt>
			<trkpt lat="54.944062" lon="20.153145"><ele>41.9</ele><time>2020-10-01T07:23:03Z</time></trkpt>
			<trkpt lat="54.944201" lon="20.149633"><ele>44.2</ele><time>2020-10-01T07:23:43Z</time></trkpt>
			<trkpt lat="54.944186" lon="20.149178"><ele>44.8</ele><time>2020-10-01T07:23:49Z</time></trkpt>
			<trkpt lat="54.943285" lon="20.142160"><ele>41.1</ele><time>2020-10-01T07:25:11Z</time></trkpt>
			<trkpt lat="54.942135" lon="20.136922"><ele>36.7</ele><time>2020-10-01T07:26:16Z</time></trkpt>
			<trkpt lat="54.941756" lon="20.135588"><ele>37.7</ele><time>2020-10-01T07:26:33Z</time></trkpt>
			<trkpt lat="54.941868" lon="20.134906"><ele>37.5</ele><time>2020-10-01T07:26:41Z</time></trkpt>
			<trkpt lat="54.941844" lon="20.134331"><ele>37.4</ele><time>2020-10-01T07:26:48Z</time></trkpt>
			<trkpt lat="54.941752" lon="20.133922"><ele>38.0</ele><time>2020-10-01T07:26:53Z</time></trkpt>
			<trkpt lat="54.940746" lon="20.130422"><ele>42.1</ele><time>2020-10-01T07:27:38Z</time></trkpt>
			<trkpt lat="54.940157" lon="20.128087"><ele>43.0</ele><time>2020-10-01T07:28:07Z</time></trkpt>
			<trkpt lat="54.939983" lon="20.127288"><ele>43.9</ele><time>2020-10-01T07:28:17Z</time></trkpt>
			<trkpt lat="54.939716" lon="20.125384"><ele>53.0</ele><time>2020-10-01T07:28:40Z</time></trkpt>
			<trkpt lat="54.939215" lon="20.123801"><ele>55.6</ele><time>2020-10-01T07:29:00Z</time></trkpt>
			<trkpt lat="54.939069" lon="20.123106"><ele>55.8</ele><time>2020-10-01T07:29:09Z</time></trkpt>
			<trkpt lat="54.939026" lon="20.121854"><ele>55.4</ele><time>2020-10-01T07:29:23Z</time></trkpt>
			<trkpt lat="54.939069" lon="20.120819"><ele>54.8</ele><time>2020-10-01T07:29:35Z</time></trkpt>
			<trkpt lat="54.939308" lon="20.118774"><ele>50.1</ele><time>2020-10-01T07:29:59Z</time></trkpt>
			<trkpt lat="54.939458" lon="20.117830"><ele>47.3</ele><time>2020-10-01T07:30:11Z</time></trkpt>
			<trkpt lat="54.939701" lon="20.116931"><ele>43.5</ele><time>2020-10-01T07:30:22Z</time></trkpt>
			<trkpt lat="54.939925" lon="20.116403"><ele>41.2</ele><time>2020-10-01T07:30:30Z</time></trkpt>
			<trkpt lat="54.940011" lon="20.114518"><ele>43.5</ele><time>2020-10-01T07:30:51Z</time></trkpt>
			<trkpt lat="54.940574" lon="20.112673"><ele>47.3</ele><time>2020-10-01T07:31:16Z</time></trkpt>
			<trkpt lat="54.940661" lon="20.112122"><ele>46.5</ele><time>2020-10-01T07:31:22Z</time></trkpt>
			<trkpt lat="54.941059" lon="20.108010"><ele>48.4</ele><time>2020-10-01T07:32:10Z</time></trkpt>
			<trkpt lat="54.941344" lon="20.104642"><ele>50.4</ele><time>2020-10-01T07:32:49Z</time></trkpt>
			<trkpt lat="54.941780" lon="20.098436"><ele>55.9</ele><time>2020-10-01T07:34:01Z</time></trkpt>
			<trkpt lat="54.941783" lon="20.097867"><ele>56.0</ele><time>2020-10-01T07:34:08Z</time></trkpt>
			<trkpt lat="54.941739" lon="20.097140"><ele>56.0</ele><time>2020-10-01T07:34:16Z</time></trkpt>
			<trkpt lat="54.941073" lon="20.093958"><ele>58.2</ele><time>2020-10-01T07:34:55Z</time></trkpt>
			<trkpt lat="54.940908" lon="20.093385"><ele>58.8</ele><time>2020-10-01T07:35:03Z</time></trkpt>
			<trkpt lat="54.939938" lon="20.091450"><ele>57.9</ele><time>2020-10-01T07:35:32Z</time></trkpt>
			<trkpt lat="54.939820" lon="20.091030"><ele>57.8</ele><time>2020-10-01T07:35:38Z</time></trkpt>
			<trkpt lat="54.939712" lon="20.090474"><ele>57.7</ele><time>2020-10-01T07:35:44Z</time></trkpt>
			<trkpt lat="54.939629" lon="20.089810"><ele>57.3</ele><time>2020-10-01T07:35:52Z</time></trkpt>
			<trkpt lat="54.939615" lon="20.088925"><ele>57.0</ele><time>2020-10-01T07:36:02Z</time></trkpt>
			<trkpt lat="54.940093" lon="20.083849"><ele>54.6</ele><time>2020-10-01T07:37:02Z</time></trkpt>
			<trkpt lat="54.940144" lon="20.083626"><ele>54.4</ele><time>2020-10-01T07:37:04Z</time></trkpt>
			<trkpt lat="54.940285" lon="20.083330"><ele>54.0</ele><time>2020-10-01T07:37:09Z</time></trkpt>
			<trkpt lat="54.940689" lon="20.082757"><ele>54.0</ele><time>2020-10-01T07:37:19Z</time></trkpt>
			<trkpt lat="54.940556" lon="20.082692"><ele>54.4</ele><time>2020-10-01T07:37:22Z</time></trkpt>
			<trkpt lat="54.939648" lon="20.083421"><ele>57.8</ele><time>2020-10-01T07:37:42Z</time></trkpt>
			<trkpt lat="54.939490" lon="20.083580"><ele>58.9</ele><time>2020-10-01T07:37:46Z</time></trkpt>
			<trkpt lat="54.938020" lon="20.085370"><ele>58.8</ele><time>2020-10-01T07:38:20Z</time></trkpt>
			<trkpt lat="54.936240" lon="20.086710"><ele>56.1</ele><time>2020-10-01T07:38:58Z</time></trkpt>
			<trkpt lat="54.931940" lon="20.090080"><ele>59.4</ele><time>2020-10-01T07:40:35Z</time></trkpt>
			<trkpt lat="54.930273" lon="20.090358"><ele>59.0</ele><time>2020-10-01T07:41:09Z</time></trkpt>
			<trkpt lat="54.930052" lon="20.090434"><ele>58.9</ele><time>2020-10-01T07:41:13Z</time></trkpt>
			<trkpt lat="54.929782" lon="20.090599"><ele>59.6</ele><time>2020-10-01T07:41:19Z</time></trkpt>
			<trkpt lat="54.929090" lon="20.091247"><ele>59.8</ele><time>2020-10-01T07:41:35Z</time></trkpt>
			<trkpt lat="54.928045" lon="20.092451"><ele>59.5</ele><time>2020-10-01T07:42:00Z</time></trkpt>
			<trkpt lat="54.927860" lon="20.092572"><ele>59.6</ele><time>2020-10-01T07:42:04Z</time></trkpt>
			<trkpt lat="54.927662" lon="20.092636"><ele>59.8</ele><time>2020-10-01T07:42:08Z</time></trkpt>
			<trkpt lat="54.927467" lon="20.092648"><ele>60.0</ele><time>2020-10-01T07:42:12Z</time></trkpt>
			<trkpt lat="54.925404" lon="20.092688"><ele>57.9</ele><time>2020-10-01T07:42:53Z</time></trkpt>
			<trkpt lat="54.923463" lon="20.092544"><ele>59.0</ele><time>2020-10-01T07:43:32Z</time></trkpt>
			<trkpt lat="54.922766" lon="20.092992"><ele>59.3</ele><time>2020-10-01T07:43:47Z</time></trkpt>
			<trkpt lat="54.921748" lon="20.094164"><ele>61.9</ele><time>2020-10-01T07:44:12Z</time></trkpt>
			<trkpt lat="54.921345" lon="20.094469"><ele>61.3</ele><time>2020-10-01T07:44:20Z</time></trkpt>
			<trkpt lat="54.920828" lon="20.094672"><ele>59.9</ele><time>2020-10-01T07:44:31Z</time></trkpt>
			<trkpt lat="54.920295" lon="20.094501"><ele>60.0</ele><time>2020-10-01T07:44:42Z</time></trkpt>
			<trkpt lat="54.919295" lon="20.093469"><ele>64.0</ele><time>2020-10-01T07:45:05Z</time></trkpt>
			<trkpt lat="54.918834" lon="20.093336"><ele>65.2</ele><time>2020-10-01T07:45:15Z</time></trkpt>
			<trkpt lat="54.917429" lon="20.093797"><ele>68.3</ele><time>2020-10-01T07:45:43Z</time></trkpt>
			<trkpt lat="54.915043" lon="20.094141"><ele>71.2</ele><time>2020-10-01T07:46:31Z</time></trkpt>
			<trkpt lat="54.914665" lon="20.094167"><ele>70.6</ele><time>2020-10-01T07:46:39Z</time></trkpt>
			<trkpt lat="54.913480" lon="20.094371"><ele>71.1</ele><time>2020-10-01T07:47:03Z</time></trkpt>
			<trkpt lat="54.912579" lon="20.095283"><ele>73.9</ele><time>2020-10-01T07:47:23Z</time></trkpt>
			<trkpt lat="54.911620" lon="20.095972"><ele>73.8</ele><time>2020-10-01T07:47:44Z</time></trkpt>
			<trkpt lat="54.897747" lon="20.099303"><ele>46.7</ele><time>2020-10-01T07:52:25Z</time></trkpt>
			<trkpt lat="54.897204" lon="20.099502"><ele>42.9</ele><time>2020-10-01T07:52:36Z</time></trkpt>
			<trkpt lat="54.896967" lon="20.099666"><ele>41.8</ele><time>2020-10-01T07:52:41Z</time></trkpt>
			<trkpt lat="54.896755" lon="20.099981"><ele>41.2</ele><time>2020-10-01T07:52:47Z</time></trkpt>
			<trkpt lat="54.896463" lon="20.100645"><ele>41.4</ele><time>2020-10-01T07:52:56Z</time></trkpt>
			<trkpt lat="54.895623" lon="20.102274"><ele>50.7</ele><time>2020-10-01T07:53:22Z</time></trkpt>
			<trkpt lat="54.895486" lon="20.102652"><ele>52.5</ele><time>2020-10-01T07:53:27Z</time></trkpt>
			<trkpt lat="54.895439" lon="20.102889"><ele>53.1</ele><time>2020-10-01T07:53:30Z</time></trkpt>
			<trkpt lat="54.895360" lon="20.103731"><ele>55.6</ele><time>2020-10-01T07:53:39Z</time></trkpt>
			<trkpt lat="54.895247" lon="20.104306"><ele>58.0</ele><time>2020-10-01T07:53:46Z</time></trkpt>
			<trkpt lat="54.895138" lon="20.104474"><ele>58.6</ele><time>2020-10-01T07:53:49Z</time></trkpt>
			<trkpt lat="54.894870" lon="20.104574"><ele>58.7</ele><time>2020-10-01T07:53:55Z</time></trkpt>
			<trkpt lat="54.889974" lon="20.105249"><ele>52.1</ele><time>2020-10-01T07:55:33Z</time></trkpt>
			<trkpt lat="54.889454" lon="20.105368"><ele>52.7</ele><time>2020-10-01T07:55:44Z</time></trkpt>
			<trkpt lat="54.887148" lon="20.105746"><ele>52.8</ele><time>2020-10-01T07:56:30Z</time></trkpt>
			<trkpt lat="54.886671" lon="20.105786"><ele>52.9</ele><time>2020-10-01T07:56:40Z</time></trkpt>
			<trkpt lat="54.883858" lon="20.105396"><ele>52.8</ele><time>2020-10-01T07:57:36Z</time></trkpt>
			<trkpt lat="54.882182" lon="20.105231"><ele>50.0</ele><time>2020-10-01T07:58:10Z</time></trkpt>
			<trkpt lat="54.881534" lon="20.104855"><ele>48.4</ele><time>2020-10-01T07:58:24Z</time></trkpt>
			<trkpt lat="54.876021" lon="20.101034"><ele>44.6</ele><time>2020-10-01T08:00:23Z</time></trkpt>
			<trkpt lat="54.874106" lon="20.099286"><ele>41.3</ele><time>2020-10-01T08:01:06Z</time></trkpt>
			<trkpt lat="54.872399" lon="20.097828"><ele>42.8</ele><time>2020-10-01T08:01:44Z</time></trkpt>
			<trkpt lat="54.872181" lon="20.097779"><ele>42.7</ele><time>2020-10-01T08:01:48Z</time></trkpt>
			<trkpt lat="54.871833" lon="20.097765"><ele>42.7</ele><time>2020-10-01T08:01:55Z</time></trkpt>
			<trkpt lat="54.871565" lon="20.097851"><ele>42.7</ele><time>2020-10-01T08:02:01Z</time></trkpt>
			<trkpt lat="54.838445" lon="20.131655"><ele>39.9</ele><time>2020-10-01T08:14:51Z</time></trkpt>
			<trkpt lat="54.836921" lon="20.133177"><ele>39.2</ele><time>2020-10-01T08:15:26Z</time></trkpt>
			<trkpt lat="54.836179" lon="20.133993"><ele>40.0</ele><time>2020-10-01T08:15:43Z</time></trkpt>
			<trkpt lat="54.831211" lon="20.142258"><ele>31.4</ele><time>2020-10-01T08:18:01Z</time></trkpt>
			<trkpt lat="54.830841" lon="20.142829"><ele>31.6</ele><time>2020-10-01T08:18:11Z</time></trkpt>
			<trkpt lat="54.830510" lon="20.143203"><ele>31.4</ele><time>2020-10-01T08:18:19Z</time></trkpt>
			<trkpt lat="54.826747" lon="20.146481"><ele>32.0</ele><time>2020-10-01T08:19:43Z</time></trkpt>
			<trkpt lat="54.822947" lon="20.149033"><ele>28.7</ele><time>2020-10-01T08:21:05Z</time></trkpt>
			<trkpt lat="54.819351" lon="20.153138"><ele>22.0</ele><time>2020-10-01T08:22:31Z</time></trkpt>
			<trkpt lat="54.818372" lon="20.154125"><ele>22.8</ele><time>2020-10-01T08:22:54Z</time></trkpt>
			<trkpt lat="54.814996" lon="20.156301"><ele>25.0</ele><time>2020-10-01T08:24:06Z</time></trkpt>
			<trkpt lat="54.814072" lon="20.156846"><ele>24.9</ele><time>2020-10-01T08:24:26Z</time></trkpt>
			<trkpt lat="54.814887" lon="20.165806"><ele>20.1</ele><time>2020-10-01T08:26:10Z</time></trkpt>
			<trkpt lat="54.814883" lon="20.170000"><ele>21.7</ele><time>2020-10-01T08:26:59Z</time></trkpt>
			<trkpt lat="54.814715" lon="20.178766"><ele>28.4</ele><time>2020-10-01T08:28:40Z</time></trkpt>
			<trkpt lat="54.814638" lon="20.178776"><ele>28.2</ele><time>2020-10-01T08:28:42Z</time></trkpt>
			<trkpt lat="54.814218" lon="20.179098"><ele>26.3</ele><time>2020-10-01T08:28:51Z</time></trkpt>
			<trkpt lat="54.811365" lon="20.181667"><ele>31.0</ele><time>2020-10-01T08:29:55Z</time></trkpt>
			<trkpt lat="54.809361" lon="20.183405"><ele>28.5</ele><time>2020-10-01T08:30:40Z</time></trkpt>
			<trkpt lat="54.805088" lon="20.187371"><ele>28.6</ele><time>2020-10-01T08:32:17Z</time></trkpt>
			<trkpt lat="54.799554" lon="20.192248"><ele>35.0</ele><time>2020-10-01T08:34:22Z</time></trkpt>
			<trkpt lat="54.798000" lon="20.193833"><ele>36.4</ele><time>2020-10-01T08:34:58Z</time></trkpt>
			<trkpt lat="54.796320" lon="20.195842"><ele>40.8</ele><time>2020-10-01T08:35:39Z</time></trkpt>
			<trkpt lat="54.794237" lon="20.198173"><ele>46.6</ele><time>2020-10-01T08:36:28Z</time></trkpt>
			<trkpt lat="54.793342" lon="20.198797"><ele>44.6</ele><time>2020-10-01T08:36:48Z</time></trkpt>
			<trkpt lat="54.791718" lon="20.199730"><ele>54.2</ele><time>2020-10-01T08:37:22Z</time></trkpt>
			<trkpt lat="54.791508" lon="20.200029"><ele>55.2</ele><time>2020-10-01T08:37:27Z</time></trkpt>
			<trkpt lat="54.791364" lon="20.200816"><ele>56.9</ele><time>2020-10-01T08:37:37Z</time></trkpt>
			<trkpt lat="54.791216" lon="20.201921"><ele>59.9</ele><time>2020-10-01T08:37:50Z</time></trkpt>
			<trkpt lat="54.790991" lon="20.202557"><ele>61.1</ele><time>2020-10-01T08:37:59Z</time></trkpt>
			<trkpt lat="54.790526" lon="20.203142"><ele>61.3</ele><time>2020-10-01T08:38:10Z</time></trkpt>
			<trkpt lat="54.787141" lon="20.207002"><ele>52.5</ele><time>2020-10-01T08:39:31Z</time></trkpt>
			<trkpt lat="54.783336" lon="20.211417"><ele>40.0</ele><time>2020-10-01T08:41:03Z</time></trkpt>
			<trkpt lat="54.781812" lon="20.213155"><ele>38.3</ele><time>2020-10-01T08:41:40Z</time></trkpt>
			<trkpt lat="54.781086" lon="20.213856"><ele>38.4</ele><time>2020-10-01T08:41:56Z</time></trkpt>
			<trkpt lat="54.780758" lon="20.214019"><ele>40.7</ele><time>2020-10-01T08:42:03Z</time></trkpt>
			<trkpt lat="54.780475" lon="20.214007"><ele>43.3</ele><time>2020-10-01T08:42:09Z</time></trkpt>
			<trkpt lat="54.778411" lon="20.213456"><ele>51.7</ele><time>2020-10-01T08:42:51Z</time></trkpt>
			<trkpt lat="54.776573" lon="20.213007"><ele>52.8</ele><time>2020-10-01T08:43:28Z</time></trkpt>
			<trkpt lat="54.776045" lon="20.212981"><ele>53.0</ele><time>2020-10-01T08:43:38Z</time></trkpt>
			<trkpt lat="54.774631" lon="20.213168"><ele>48.3</ele><time>2020-10-01T08:44:07Z</time></trkpt>
			<trkpt lat="54.773966" lon="20.213346"><ele>43.3</ele><time>2020-10-01T08:44:20Z</time></trkpt>
			<trkpt lat="54.773262" lon="20.213269"><ele>37.8</ele><time>2020-10-01T08:44:34Z</time></trkpt>
			<trkpt lat="54.771956" lon="20.213218"><ele>38.7</ele><time>2020-10-01T08:45:01Z</time></trkpt>
			<trkpt lat="54.767596" lon="20.213283"><ele>40.8</ele><time>2020-10-01T08:46:28Z</time></trkpt>
			<trkpt lat="54.767348" lon="20.213260"><ele>40.1</ele><time>2020-10-01T08:46:33Z</time></trkpt>
			<trkpt lat="54.767098" lon="20.213159"><ele>38.5</ele><time>2020-10-01T08:46:38Z</time></trkpt>
			<trkpt lat="54.766892" lon="20.212963"><ele>36.7</ele><time>2020-10-01T08:46:43Z</time></trkpt>
			<trkpt lat="54.766752" lon="20.212583"><ele>34.1</ele><time>2020-10-01T08:46:48Z</time></trkpt>
			<trkpt lat="54.766543" lon="20.211782"><ele>30.1</ele><time>2020-10-01T08:46:58Z</time></trkpt>
			<trkpt lat="54.766413" lon="20.211526"><ele>29.2</ele><time>2020-10-01T08:47:02Z</time></trkpt>
			<trkpt lat="54.766002" lon="20.211105"><ele>28.7</ele><time>2020-10-01T08:47:12Z</time></trkpt>
			<trkpt lat="54.765795" lon="20.210608"><ele>29.7</ele><time>2020-10-01T08:47:19Z</time></trkpt>
			<trkpt lat="54.765400" lon="20.209275"><ele>33.0</ele><time>2020-10-01T08:47:36Z</time></trkpt>
			<trkpt lat="54.765168" lon="20.208600"><ele>34.6</ele><time>2020-10-01T08:47:45Z</time></trkpt>
			<trkpt lat="54.764069" lon="20.207850"><ele>38.0</ele><time>2020-10-01T08:48:09Z</time></trkpt>
			<trkpt lat="54.761972" lon="20.205425"><ele>34.0</ele><time>2020-10-01T08:48:59Z</time></trkpt>
			<trkpt lat="54.759927" lon="20.202937"><ele>34.7</ele><time>2020-10-01T08:49:50Z</time></trkpt>
			<trkpt lat="54.750942" lon="20.192328"><ele>21.4</ele><time>2020-10-01T08:53:27Z</time></trkpt>
			<trkpt lat="54.750728" lon="20.192027"><ele>21.2</ele><time>2020-10-01T08:53:33Z</time></trkpt>
			<trkpt lat="54.750642" lon="20.191955"><ele>21.0</ele><time>2020-10-01T08:53:35Z</time></trkpt>
			<trkpt lat="54.750553" lon="20.191967"><ele>20.8</ele><time>2020-10-01T08:53:37Z</time></trkpt>
			<trkpt lat="54.750490" lon="20.192226"><ele>20.7</ele><time>2020-10-01T08:53:40Z</time></trkpt>
			<trkpt lat="54.750434" lon="20.193657"><ele>21.1</ele><time>2020-10-01T08:53:56Z</time></trkpt>
			<trkpt lat="54.750278" lon="20.196146"><ele>18.8</ele><time>2020-10-01T08:54:25Z</time></trkpt>
			<trkpt lat="54.749359" lon="20.218334"><ele>13.5</ele><time>2020-10-01T08:58:43Z</time></trkpt>
			<trkpt lat="54.749287" lon="20.219520"><ele>13.8</ele><time>2020-10-01T08:58:56Z</time></trkpt>
			<trkpt lat="54.747840" lon="20.234829"><ele>18.2</ele><time>2020-10-01T09:01:56Z</time></trkpt>
			<trkpt lat="54.747775" lon="20.235344"><ele>20.6</ele><time>2020-10-01T09:02:02Z</time></trkpt>
			<trkpt lat="54.747674" lon="20.235766"><ele>23.1</ele><time>2020-10-01T09:02:07Z</time></trkpt>
			<trkpt lat="54.747420" lon="20.236502"><ele>25.5</ele><time>2020-10-01T09:02:17Z</time></trkpt>
			<trkpt lat="54.744723" lon="20.245350"><ele>24.9</ele><time>2020-10-01T09:04:13Z</time></trkpt>
			<trkpt lat="54.744312" lon="20.246852"><ele>26.3</ele><time>2020-10-01T09:04:32Z</time></trkpt>
			<trkpt lat="54.742665" lon="20.252159"><ele>24.4</ele><time>2020-10-01T09:05:42Z</time></trkpt>
			<trkpt lat="54.742609" lon="20.252605"><ele>24.0</ele><time>2020-10-01T09:05:47Z</time></trkpt>
			<trkpt lat="54.742624" lon="20.253680"><ele>23.9</ele><time>2020-10-01T09:06:00Z</time></trkpt>
			<trkpt lat="54.742733" lon="20.256647"><ele>20.8</ele><time>2020-10-01T09:06:34Z</time></trkpt>
			<trkpt lat="54.742774" lon="20.257077"><ele>21.0</ele><time>2020-10-01T09:06:39Z</time></trkpt>
			<trkpt lat="54.742927" lon="20.257597"><ele>21.4</ele><time>2020-10-01T09:06:46Z</time></trkpt>
			<trkpt lat="54.743804" lon="20.258862"><ele>21.0</ele><time>2020-10-01T09:07:09Z</time></trkpt>
			<trkpt lat="54.743907" lon="20.259287"><ele>20.3</ele><time>2020-10-01T09:07:14Z</time></trkpt>
			<trkpt lat="54.744101" lon="20.261671"><ele>18.8</ele><time>2020-10-01T09:07:42Z</time></trkpt>
			<trkpt lat="54.745667" lon="20.275463"><ele>7.3</ele><time>2020-10-01T09:10:24Z</time></trkpt>
			<trkpt lat="54.745926" lon="20.276272"><ele>7.6</ele><time>2020-10-01T09:10:35Z</time></trkpt>
			<trkpt lat="54.746173" lon="20.276865"><ele>8.1</ele><time>2020-10-01T09:10:44Z</time></trkpt>
			<trkpt lat="54.747140" lon="20.279527"><ele>12.2</ele><time>2020-10-01T09:11:20Z</time></trkpt>
			<trkpt lat="54.747619" lon="20.280797"><ele>11.1</ele><time>2020-10-01T09:11:37Z</time></trkpt>
			<trkpt lat="54.747735" lon="20.280986"><ele>10.7</ele><time>2020-10-01T09:11:41Z</time></trkpt>
			<trkpt lat="54.747919" lon="20.282036"><ele>9.5</ele><time>2020-10-01T09:11:53Z</time></trkpt>
			<trkpt lat="54.749140" lon="20.291605"><ele>8.0</ele><time>2020-10-01T09:13:47Z</time></trkpt>
			<trkpt lat="54.749137" lon="20.292119"><ele>7.9</ele><time>2020-10-01T09:13:53Z</time></trkpt>
			<trkpt lat="54.749017" lon="20.294243"><ele>7.2</ele><time>2020-10-01T09:14:17Z</time></trkpt>
			<trkpt lat="54.749053" lon="20.294515"><ele>7.5</ele><time>2020-10-01T09:14:21Z</time></trkpt>
			<trkpt lat="54.749259" lon="20.295248"><ele>8.2</ele><time>2020-10-01T09:14:30Z</time></trkpt>
			<trkpt lat="54.749396" lon="20.295876"><ele>8.8</ele><time>2020-10-01T09:14:38Z</time></trkpt>
			<trkpt lat="54.749487" lon="20.299108"><ele>9.6</ele><time>2020-10-01T09:15:15Z</time></trkpt>
			<trkpt lat="54.749321" lon="20.299818"><ele>9.1</ele><time>2020-10-01T09:15:24Z</time></trkpt>
			<trkpt lat="54.749031" lon="20.300586"><ele>8.9</ele><time>2020-10-01T09:15:35Z</time></trkpt>
			<trkpt lat="54.748984" lon="20.300995"><ele>8.8</ele><time>2020-10-01T09:15:40Z</time></trkpt>
			<trkpt lat="54.748941" lon="20.302279"><ele>8.8</ele><time>2020-10-01T09:15:54Z</time></trkpt>
			<trkpt lat="54.749014" lon="20.302622"><ele>8.8</ele><time>2020-10-01T09:15:59Z</time></trkpt>
			<trkpt lat="54.761146" lon="20.328892"><ele>28.5</ele><time>2020-10-01T09:22:28Z</time></trkpt>
			<trkpt lat="54.756583" lon="20.338123"><ele>33.4</ele><time>2020-10-01T09:24:48Z</time></trkpt>
			<trkpt lat="54.756196" lon="20.340327"><ele>26.1</ele><time>2020-10-01T09:25:15Z</time></trkpt>
			<trkpt lat="54.755906" lon="20.342583"><ele>38.1</ele><time>2020-10-01T09:25:42Z</time></trkpt>
			<trkpt lat="54.755312" lon="20.345843"><ele>31.9</ele><time>2020-10-01T09:26:21Z</time></trkpt>
			<trkpt lat="54.755237" lon="20.346596"><ele>30.3</ele><time>2020-10-01T09:26:30Z</time></trkpt>
			<trkpt lat="54.755452" lon="20.353031"><ele>26.8</ele><time>2020-10-01T09:27:45Z</time></trkpt>
			<trkpt lat="54.755737" lon="20.363121"><ele>28.1</ele><time>2020-10-01T09:29:41Z</time></trkpt>
			<trkpt lat="54.755930" lon="20.368143"><ele>27.9</ele><time>2020-10-01T09:30:40Z</time></trkpt>
			<trkpt lat="54.756225" lon="20.377296"><ele>29.0</ele><time>2020-10-01T09:32:26Z</time></trkpt>
			<trkpt lat="54.756289" lon="20.378032"><ele>27.6</ele><time>2020-10-01T09:32:34Z</time></trkpt>
			<trkpt lat="54.756489" lon="20.379145"><ele>25.9</ele><time>2020-10-01T09:32:48Z</time></trkpt>
			<trkpt lat="54.759507" lon="20.393973"><ele>24.6</ele><time>2020-10-01T09:35:49Z</time></trkpt>
			<trkpt lat="54.759710" lon="20.395243"><ele>26.1</ele><time>2020-10-01T09:36:05Z</time></trkpt>
			<trkpt lat="54.759784" lon="20.396020"><ele>27.9</ele><time>2020-10-01T09:36:14Z</time></trkpt>
			<trkpt lat="54.759763" lon="20.398553"><ele>28.8</ele><time>2020-10-01T09:36:43Z</time></trkpt>
			<trkpt lat="54.759354" lon="20.411599"><ele>28.0</ele><time>2020-10-01T09:39:14Z</time></trkpt>
			<trkpt lat="54.759372" lon="20.412331"><ele>27.4</ele><time>2020-10-01T09:39:23Z</time></trkpt>
			<trkpt lat="54.759445" lon="20.413023"><ele>27.6</ele><time>2020-10-01T09:39:31Z</time></trkpt>
			<trkpt lat="54.759640" lon="20.414208"><ele>28.1</ele><time>2020-10-01T09:39:45Z</time></trkpt>
			<trkpt lat="54.760689" lon="20.418093"><ele>28.6</ele><time>2020-10-01T09:40:35Z</time></trkpt>
			<trkpt lat="54.762117" lon="20.425031"><ele>28.4</ele><time>2020-10-01T09:42:00Z</time></trkpt>
			<trkpt lat="54.763328" lon="20.431339"><ele>28.3</ele><time>2020-10-01T09:43:17Z</time></trkpt>
			<trkpt lat="54.763431" lon="20.431996"><ele>27.6</ele><time>2020-10-01T09:43:25Z</time></trkpt>
			<trkpt lat="54.763429" lon="20.432158"><ele>27.4</ele><time>2020-10-01T09:43:26Z</time></trkpt>
			<trkpt lat="54.763351" lon="20.432406"><ele>27.1</ele><time>2020-10-01T09:43:30Z</time></trkpt>
			<trkpt lat="54.762612" lon="20.433612"><ele>27.3</ele><time>2020-10-01T09:43:50Z</time></trkpt>
			<trkpt lat="54.761216" lon="20.435760"><ele>28.0</ele><time>2020-10-01T09:44:27Z</time></trkpt>
			<trkpt lat="54.761220" lon="20.435760"><ele>28.0</ele><time>2020-10-01T09:44:27Z</time></trkpt>
			<trkpt lat="54.760760" lon="20.436570"><ele>27.9</ele><time>2020-10-01T09:44:36Z</time></trkpt>
			<trkpt lat="54.760740" lon="20.436610"><ele>27.9</ele><time>2020-10-01T09:44:45Z</time></trkpt>
			<trkpt lat="54.760160" lon="20.437560"><ele>29.3</ele><time>2020-10-01T09:44:54Z</time></trkpt>
			<trkpt lat="54.759360" lon="20.439020"><ele>30.7</ele><time>2020-10-01T09:45:04Z</time></trkpt>
			<trkpt lat="54.759320" lon="20.439090"><ele>30.6</ele><time>2020-10-01T09:45:13Z</time></trkpt>
			<trkpt lat="54.759190" lon="20.439340"><ele>30.1</ele><time>2020-10-01T09:45:22Z</time></trkpt>
			<trkpt lat="54.759090" lon="20.439530"><ele>29.7</ele><time>2020-10-01T09:45:32Z</time></trkpt>
			<trkpt lat="54.759090" lon="20.439530"><ele>29.7</ele><time>2020-10-01T09:45:32Z</time></trkpt>
			<trkpt lat="54.759040" lon="20.439630"><ele>29.6</ele><time>2020-10-01T09:45:34Z</time></trkpt>
			<trkpt lat="54.759030" lon="20.439800"><ele>29.5</ele><time>2020-10-01T09:45:37Z</time></trkpt>
			<trkpt lat="54.759050" lon="20.439890"><ele>29.6</ele><time>2020-10-01T09:45:39Z</time></trkpt>
			<trkpt lat="54.759080" lon="20.439950"><ele>29.7</ele><time>2020-10-01T09:45:42Z</time></trkpt>
			<trkpt lat="54.759320" lon="20.440330"><ele>29.7</ele><time>2020-10-01T09:45:44Z</time></trkpt>
			<trkpt lat="54.759550" lon="20.440660"><ele>29.7</ele><time>2020-10-01T09:45:47Z</time></trkpt>
			<trkpt lat="54.759800" lon="20.441040"><ele>29.8</ele><time>2020-10-01T09:45:49Z</time></trkpt>
			<trkpt lat="54.760140" lon="20.441510"><ele>29.5</ele><time>2020-10-01T09:45:52Z</time></trkpt>
			<trkpt lat="54.760230" lon="20.441570"><ele>29.4</ele><time>2020-10-01T09:45:54Z</time></trkpt>
			<trkpt lat="54.760280" lon="20.441590"><ele>29.5</ele><time>2020-10-01T09:45:57Z</time></trkpt>
			<trkpt lat="54.760280" lon="20.441590"><ele>29.5</ele><time>2020-10-01T09:45:57Z</time></trkpt>
			<trkpt lat="54.760500" lon="20.441650"><ele>29.6</ele><time>2020-10-01T09:46:10Z</time></trkpt>
			<trkpt lat="54.760500" lon="20.441650"><ele>29.6</ele><time>2020-10-01T09:46:10Z</time></trkpt>
			<trkpt lat="54.760580" lon="20.441710"><ele>29.7</ele><time>2020-10-01T09:46:13Z</time></trkpt>
			<trkpt lat="54.760670" lon="20.441810"><ele>29.7</ele><time>2020-10-01T09:46:16Z</time></trkpt>
			<trkpt lat="54.760720" lon="20.441960"><ele>29.8</ele><time>2020-10-01T09:46:19Z</time></trkpt>
			<trkpt lat="54.760740" lon="20.442010"><ele>29.9</ele><time>2020-10-01T09:46:22Z</time></trkpt>
			<trkpt lat="54.760740" lon="20.442010"><ele>29.9</ele><time>2020-10-01T09:46:22Z</time></trkpt>
			<trkpt lat="54.760840" lon="20.442250"><ele>30.0</ele><time>2020-10-01T09:46:24Z</time></trkpt>
			<trkpt lat="54.761000" lon="20.442670"><ele>30.5</ele><time>2020-10-01T09:46:26Z</time></trkpt>
			<trkpt lat="54.761190" lon="20.443190"><ele>31.4</ele><time>2020-10-01T09:46:28Z</time></trkpt>
			<trkpt lat="54.761210" lon="20.443340"><ele>31.7</ele><time>2020-10-01T09:46:30Z</time></trkpt>
			<trkpt lat="54.761210" lon="20.443470"><ele>32.0</ele><time>2020-10-01T09:46:32Z</time></trkpt>
			<trkpt lat="54.761200" lon="20.443620"><ele>32.4</ele><time>2020-10-01T09:46:34Z</time></trkpt>
			<trkpt lat="54.761160" lon="20.443750"><ele>32.8</ele><time>2020-10-01T09:46:36Z</time></trkpt>
			<trkpt lat="54.761130" lon="20.443890"><ele>33.2</ele><time>2020-10-01T09:46:39Z</time></trkpt>
			<trkpt lat="54.761130" lon="20.444040"><ele>33.6</ele><time>2020-10-01T09:46:41Z</time></trkpt>
			<trkpt lat="54.761150" lon="20.444180"><ele>33.7</ele><time>2020-10-01T09:46:43Z</time></trkpt>
			<trkpt lat="54.761200" lon="20.444310"><ele>33.4</ele><time>2020-10-01T09:46:45Z</time></trkpt>
			<trkpt lat="54.761220" lon="20.444370"><ele>33.3</ele><time>2020-10-01T09:46:47Z</time></trkpt>
			<trkpt lat="54.761290" lon="20.444470"><ele>33.0</ele><time>2020-10-01T09:46:49Z</time></trkpt>
			<trkpt lat="54.761330" lon="20.444510"><ele>32.9</ele><time>2020-10-01T09:46:51Z</time></trkpt>
			<trkpt lat="54.761390" lon="20.444540"><ele>32.7</ele><time>2020-10-01T09:46:54Z</time></trkpt>
			<trkpt lat="54.761390" lon="20.444540"><ele>32.7</ele><time>2020-10-01T09:46:54Z</time></trkpt>
			<trkpt lat="54.761450" lon="20.444560"><ele>32.5</ele><time>2020-10-01T09:46:54Z</time></trkpt>
			<trkpt lat="54.761550" lon="20.444550"><ele>32.3</ele><time>2020-10-01T09:46:54Z</time></trkpt>
			<trkpt lat="54.761620" lon="20.444510"><ele>32.1</ele><time>2020-10-01T09:46:54Z</time></trkpt>
			<trkpt lat="54.761690" lon="20.444440"><ele>31.9</ele><time>2020-10-01T09:46:54Z</time></trkpt>
			<trkpt lat="54.761750" lon="20.444330"><ele>31.8</ele><time>2020-10-01T09:46:54Z</time></trkpt>
			<trkpt lat="54.761780" lon="20.444250"><ele>31.7</ele><time>2020-10-01T09:46:54Z</time></trkpt>
			<trkpt lat="54.761810" lon="20.444160"><ele>31.6</ele><time>2020-10-01T09:46:54Z</time></trkpt>
			<trkpt lat="54.761840" lon="20.444070"><ele>31.4</ele><time>2020-10-01T09:46:55Z</time></trkpt>
			<trkpt lat="54.761950" lon="20.443960"><ele>31.0</ele><time>2020-10-01T09:46:55Z</time></trkpt>
			<trkpt lat="54.762040" lon="20.443890"><ele>30.8</ele><time>2020-10-01T09:46:56Z</time></trkpt>
			<trkpt lat="54.762658" lon="20.443771"><ele>30.0</ele><time>2020-10-01T09:47:09Z</time></trkpt>
			<trkpt lat="54.764214" lon="20.443760"><ele>31.3</ele><time>2020-10-01T09:47:40Z</time></trkpt>
			<trkpt lat="54.764491" lon="20.443809"><ele>30.8</ele><time>2020-10-01T09:47:45Z</time></trkpt>
			<trkpt lat="54.765037" lon="20.444395"><ele>30.1</ele><time>2020-10-01T09:47:58Z</time></trkpt>
			<trkpt lat="54.764039" lon="20.451459"><ele>28.1</ele><time>2020-10-01T09:49:22Z</time></trkpt>
			<trkpt lat="54.764074" lon="20.451603"><ele>28.1</ele><time>2020-10-01T09:49:24Z</time></trkpt>
			<trkpt lat="54.767470" lon="20.453005"><ele>32.0</ele><time>2020-10-01T09:50:34Z</time></trkpt>
			<trkpt lat="54.767974" lon="20.453288"><ele>32.5</ele><time>2020-10-01T09:50:45Z</time></trkpt>
			<trkpt lat="54.768651" lon="20.453597"><ele>32.7</ele><time>2020-10-01T09:50:59Z</time></trkpt>
			<trkpt lat="54.769498" lon="20.453799"><ele>32.1</ele><time>2020-10-01T09:51:16Z</time></trkpt>
			<trkpt lat="54.770097" lon="20.453855"><ele>31.9</ele><time>2020-10-01T09:51:28Z</time></trkpt>
			<trkpt lat="54.770305" lon="20.453855"><ele>32.4</ele><time>2020-10-01T09:51:32Z</time></trkpt>
			<trkpt lat="54.770795" lon="20.453776"><ele>33.4</ele><time>2020-10-01T09:51:42Z</time></trkpt>
			<trkpt lat="54.770734" lon="20.463646"><ele>38.2</ele><time>2020-10-01T09:53:36Z</time></trkpt>
			<trkpt lat="54.770636" lon="20.465291"><ele>38.9</ele><time>2020-10-01T09:53:55Z</time></trkpt>
			<trkpt lat="54.770481" lon="20.466308"><ele>37.9</ele><time>2020-10-01T09:54:07Z</time></trkpt>
			<trkpt lat="54.770126" lon="20.467658"><ele>38.0</ele><time>2020-10-01T09:54:24Z</time></trkpt>
			<trkpt lat="54.769880" lon="20.468310"><ele>37.9</ele><time>2020-10-01T09:54:33Z</time></trkpt>
			<trkpt lat="54.769508" lon="20.469108"><ele>38.5</ele><time>2020-10-01T09:54:45Z</time></trkpt>
			<trkpt lat="54.769145" lon="20.469702"><ele>38.1</ele><time>2020-10-01T09:54:55Z</time></trkpt>
			<trkpt lat="54.768675" lon="20.470305"><ele>35.1</ele><time>2020-10-01T09:55:07Z</time></trkpt>
			<trkpt lat="54.768261" lon="20.470709"><ele>32.6</ele><time>2020-10-01T09:55:17Z</time></trkpt>
			<trkpt lat="54.767915" lon="20.470985"><ele>33.1</ele><time>2020-10-01T09:55:24Z</time></trkpt>
			<trkpt lat="54.767274" lon="20.471341"><ele>34.2</ele><time>2020-10-01T09:55:38Z</time></trkpt>
			<trkpt lat="54.766834" lon="20.471484"><ele>36.1</ele><time>2020-10-01T09:55:47Z</time></trkpt>
			<trkpt lat="54.766439" lon="20.471554"><ele>36.5</ele><time>2020-10-01T09:55:55Z</time></trkpt>
			<trkpt lat="54.766207" lon="20.471427"><ele>35.9</ele><time>2020-10-01T09:55:59Z</time></trkpt>
			<trkpt lat="54.765935" lon="20.471019"><ele>35.2</ele><time>2020-10-01T09:56:07Z</time></trkpt>
			<trkpt lat="54.765814" lon="20.470952"><ele>35.0</ele><time>2020-10-01T09:56:09Z</time></trkpt>
			<trkpt lat="54.765688" lon="20.470970"><ele>34.8</ele><time>2020-10-01T09:56:12Z</time></trkpt>
			<trkpt lat="54.765445" lon="20.471190"><ele>34.5</ele><time>2020-10-01T09:56:17Z</time></trkpt>
			<trkpt lat="54.765307" lon="20.471240"><ele>34.4</ele><time>2020-10-01T09:56:20Z</time></trkpt>
			<trkpt lat="54.765182" lon="20.471234"><ele>34.2</ele><time>2020-10-01T09:56:23Z</time></trkpt>
			<trkpt lat="54.761891" lon="20.470495"><ele>31.8</ele><time>2020-10-01T09:57:29Z</time></trkpt>
			<trkpt lat="54.761189" lon="20.470386"><ele>32.6</ele><time>2020-10-01T09:57:43Z</time></trkpt>
			<trkpt lat="54.760327" lon="20.470374"><ele>30.6</ele><time>2020-10-01T09:58:01Z</time></trkpt>
			<trkpt lat="54.759531" lon="20.470473"><ele>28.4</ele><time>2020-10-01T09:58:16Z</time></trkpt>
			<trkpt lat="54.758904" lon="20.470661"><ele>28.1</ele><time>2020-10-01T09:58:29Z</time></trkpt>
			<trkpt lat="54.758294" lon="20.470919"><ele>28.4</ele><time>2020-10-01T09:58:42Z</time></trkpt>
			<trkpt lat="54.757683" lon="20.471254"><ele>31.1</ele><time>2020-10-01T09:58:55Z</time></trkpt>
			<trkpt lat="54.756730" lon="20.471955"><ele>36.8</ele><time>2020-10-01T09:59:15Z</time></trkpt>
			<trkpt lat="54.747340" lon="20.479908"><ele>23.0</ele><time>2020-10-01T10:02:45Z</time></trkpt>
			<trkpt lat="54.747172" lon="20.480027"><ele>23.0</ele><time>2020-10-01T10:02:48Z</time></trkpt>
			<trkpt lat="54.746860" lon="20.479990"><ele>23.0</ele><time>2020-10-01T10:02:52Z</time></trkpt>
			<trkpt lat="54.746720" lon="20.480090"><ele>23.0</ele><time>2020-10-01T10:02:54Z</time></trkpt>
			<trkpt lat="54.746650" lon="20.480250"><ele>23.0</ele><time>2020-10-01T10:02:56Z</time></trkpt>
			<trkpt lat="54.746620" lon="20.480440"><ele>23.0</ele><time>2020-10-01T10:02:59Z</time></trkpt>
			<trkpt lat="54.746650" lon="20.480700"><ele>23.0</ele><time>2020-10-01T10:03:03Z</time></trkpt>
			<trkpt lat="54.746700" lon="20.480820"><ele>23.0</ele><time>2020-10-01T10:03:05Z</time></trkpt>
			<trkpt lat="54.747040" lon="20.481180"><ele>23.4</ele><time>2020-10-01T10:03:12Z</time></trkpt>
			<trkpt lat="54.747170" lon="20.481440"><ele>23.7</ele><time>2020-10-01T10:03:14Z</time></trkpt>
			<trkpt lat="54.747280" lon="20.481960"><ele>23.7</ele><time>2020-10-01T10:03:17Z</time></trkpt>
			<trkpt lat="54.747350" lon="20.482410"><ele>23.3</ele><time>2020-10-01T10:03:19Z</time></trkpt>
			<trkpt lat="54.747430" lon="20.483320"><ele>24.1</ele><time>2020-10-01T10:03:21Z</time></trkpt>
			<trkpt lat="54.747430" lon="20.484330"><ele>25.8</ele><time>2020-10-01T10:03:25Z</time></trkpt>
			<trkpt lat="54.747390" lon="20.484940"><ele>25.2</ele><time>2020-10-01T10:03:28Z</time></trkpt>
			<trkpt lat="54.746890" lon="20.488550"><ele>23.2</ele><time>2020-10-01T10:03:39Z</time></trkpt>
			<trkpt lat="54.746820" lon="20.488890"><ele>23.1</ele><time>2020-10-01T10:03:41Z</time></trkpt>
			<trkpt lat="54.746750" lon="20.489080"><ele>23.0</ele><time>2020-10-01T10:03:43Z</time></trkpt>
			<trkpt lat="54.746170" lon="20.489650"><ele>22.4</ele><time>2020-10-01T10:03:47Z</time></trkpt>
			<trkpt lat="54.746130" lon="20.489820"><ele>22.4</ele><time>2020-10-01T10:03:49Z</time></trkpt>
			<trkpt lat="54.746180" lon="20.489980"><ele>22.5</ele><time>2020-10-01T10:03:51Z</time></trkpt>
			<trkpt lat="54.746340" lon="20.490050"><ele>22.6</ele><time>2020-10-01T10:03:52Z</time></trkpt>
			<trkpt lat="54.747020" lon="20.489430"><ele>23.2</ele><time>2020-10-01T10:03:53Z</time></trkpt>
			<trkpt lat="54.747090" lon="20.489250"><ele>23.2</ele><time>2020-10-01T10:03:54Z</time></trkpt>
			<trkpt lat="54.747090" lon="20.489250"><ele>23.2</ele><time>2020-10-01T10:03:54Z</time></trkpt>
			<trkpt lat="54.747090" lon="20.489090"><ele>23.1</ele><time>2020-10-01T10:03:54Z</time></trkpt>
			<trkpt lat="54.747120" lon="20.489060"><ele>23.1</ele><time>2020-10-01T10:03:54Z</time></trkpt>
			<trkpt lat="54.747510" lon="20.488740"><ele>23.5</ele><time>2020-10-01T10:03:54Z</time></trkpt>
			<trkpt lat="54.748100" lon="20.488230"><ele>24.8</ele><time>2020-10-01T10:03:54Z</time></trkpt>
			<trkpt lat="54.748360" lon="20.488010"><ele>25.0</ele><time>2020-10-01T10:03:55Z</time></trkpt>
			<trkpt lat="54.748360" lon="20.488020"><ele>25.1</ele><time>2020-10-01T10:03:55Z</time></trkpt>
			<trkpt lat="54.748410" lon="20.487970"><ele>25.1</ele><time>2020-10-01T10:04:03Z</time></trkpt>
			<trkpt lat="54.748740" lon="20.489120"><ele>24.6</ele><time>2020-10-01T10:04:11Z</time></trkpt>
			<trkpt lat="54.748870" lon="20.489010"><ele>24.8</ele><time>2020-10-01T10:04:19Z</time></trkpt>
			<trkpt lat="54.749200" lon="20.488720"><ele>25.5</ele><time>2020-10-01T10:04:27Z</time></trkpt>
			<trkpt lat="54.749200" lon="20.488700"><ele>25.6</ele><time>2020-10-01T10:04:36Z</time></trkpt>
		</trkseg>
	</trk>
</gpx>